<?xml version="1.0" encoding="UTF-8" standalone="no" ?>
<gpx xmlns="http://www.topografix.com/GPX/1/1" xmlns:xsi="http://www.w3.org/2001/XMLSchema-instance" xsi:schemaLocation="http://www.topografix.com/GPX/1/1 http://www.topografix.com/GPX/1/1/gpx.xsd" version="1.1" creator="VisuGPX - https://www.visugpx.com">
  <metadata>
    <name>Tête Pelouse</name>
    <desc><![CDATA[Par la combe de Grand Crêt]]></desc>
  </metadata>
  <trk>
    <name><![CDATA[Tête Pelouse_1]]></name>
    <trkseg>
      <trkpt lat="45.91983" lon="6.47887">
        <ele>1404.300048</ele>
        <time>2012-01-29T07:43:39Z</time>
      </trkpt>
      <trkpt lat="45.91982" lon="6.47898">
        <ele>1422.5</ele>
        <time>2012-01-29T07:47:05Z</time>
      </trkpt>
      <trkpt lat="45.91982" lon="6.479">
        <ele>1422.599975</ele>
        <time>2012-01-29T07:47:06Z</time>
      </trkpt>
      <trkpt lat="45.91987" lon="6.47922">
        <ele>1421.8</ele>
        <time>2012-01-29T07:47:18Z</time>
      </trkpt>
      <trkpt lat="45.9199" lon="6.47933">
        <ele>1421</ele>
        <time>2012-01-29T07:47:24Z</time>
      </trkpt>
      <trkpt lat="45.91992" lon="6.47945">
        <ele>1420.5</ele>
        <time>2012-01-29T07:47:30Z</time>
      </trkpt>
      <trkpt lat="45.91995" lon="6.47956">
        <ele>1419.8</ele>
        <time>2012-01-29T07:47:36Z</time>
      </trkpt>
      <trkpt lat="45.91998" lon="6.47968">
        <ele>1419.8</ele>
        <time>2012-01-29T07:47:43Z</time>
      </trkpt>
      <trkpt lat="45.92001" lon="6.47979">
        <ele>1420.5</ele>
        <time>2012-01-29T07:47:50Z</time>
      </trkpt>
      <trkpt lat="45.92004" lon="6.47991">
        <ele>1421.3</ele>
        <time>2012-01-29T07:47:57Z</time>
      </trkpt>
      <trkpt lat="45.92007" lon="6.48002">
        <ele>1421.9</ele>
        <time>2012-01-29T07:48:04Z</time>
      </trkpt>
      <trkpt lat="45.9201" lon="6.48013">
        <ele>1422.4</ele>
        <time>2012-01-29T07:48:11Z</time>
      </trkpt>
      <trkpt lat="45.9201" lon="6.48015">
        <ele>1422.5</ele>
        <time>2012-01-29T07:48:12Z</time>
      </trkpt>
      <trkpt lat="45.92016" lon="6.48035">
        <ele>1423.5</ele>
        <time>2012-01-29T07:48:24Z</time>
      </trkpt>
      <trkpt lat="45.9202" lon="6.48046">
        <ele>1423.6</ele>
        <time>2012-01-29T07:48:31Z</time>
      </trkpt>
      <trkpt lat="45.92024" lon="6.48056">
        <ele>1423.9</ele>
        <time>2012-01-29T07:48:37Z</time>
      </trkpt>
      <trkpt lat="45.92028" lon="6.48066">
        <ele>1424.4</ele>
        <time>2012-01-29T07:48:43Z</time>
      </trkpt>
      <trkpt lat="45.92032" lon="6.48076">
        <ele>1424.5</ele>
        <time>2012-01-29T07:48:49Z</time>
      </trkpt>
      <trkpt lat="45.92037" lon="6.48086">
        <ele>1424.8</ele>
        <time>2012-01-29T07:48:56Z</time>
      </trkpt>
      <trkpt lat="45.92042" lon="6.48096">
        <ele>1424.9</ele>
        <time>2012-01-29T07:49:03Z</time>
      </trkpt>
      <trkpt lat="45.92047" lon="6.48104">
        <ele>1425.1</ele>
        <time>2012-01-29T07:49:10Z</time>
      </trkpt>
      <trkpt lat="45.92053" lon="6.48113">
        <ele>1425.5</ele>
        <time>2012-01-29T07:49:18Z</time>
      </trkpt>
      <trkpt lat="45.92054" lon="6.48115">
        <ele>1425.5</ele>
        <time>2012-01-29T07:49:19Z</time>
      </trkpt>
      <trkpt lat="45.92055" lon="6.4814">
        <ele>1427.5</ele>
        <time>2012-01-29T07:49:37Z</time>
      </trkpt>
      <trkpt lat="45.92055" lon="6.48153">
        <ele>1429.4</ele>
        <time>2012-01-29T07:49:46Z</time>
      </trkpt>
      <trkpt lat="45.92056" lon="6.48165">
        <ele>1431.4</ele>
        <time>2012-01-29T07:49:56Z</time>
      </trkpt>
      <trkpt lat="45.92057" lon="6.48177">
        <ele>1434.6</ele>
        <time>2012-01-29T07:50:06Z</time>
      </trkpt>
      <trkpt lat="45.9206" lon="6.48189">
        <ele>1435</ele>
        <time>2012-01-29T07:50:14Z</time>
      </trkpt>
      <trkpt lat="45.92062" lon="6.48201">
        <ele>1436.5</ele>
        <time>2012-01-29T07:50:23Z</time>
      </trkpt>
      <trkpt lat="45.92063" lon="6.48202">
        <ele>1436.6</ele>
        <time>2012-01-29T07:50:24Z</time>
      </trkpt>
      <trkpt lat="45.92069" lon="6.48223">
        <ele>1438.6</ele>
        <time>2012-01-29T07:50:40Z</time>
      </trkpt>
      <trkpt lat="45.92071" lon="6.48235">
        <ele>1440.5</ele>
        <time>2012-01-29T07:50:48Z</time>
      </trkpt>
      <trkpt lat="45.92073" lon="6.48247">
        <ele>1441.8</ele>
        <time>2012-01-29T07:50:56Z</time>
      </trkpt>
      <trkpt lat="45.92075" lon="6.4826">
        <ele>1444.1</ele>
        <time>2012-01-29T07:51:05Z</time>
      </trkpt>
      <trkpt lat="45.92076" lon="6.48271">
        <ele>1445.5</ele>
        <time>2012-01-29T07:51:13Z</time>
      </trkpt>
      <trkpt lat="45.92078" lon="6.48283">
        <ele>1447.3</ele>
        <time>2012-01-29T07:51:22Z</time>
      </trkpt>
      <trkpt lat="45.9208" lon="6.48295">
        <ele>1449</ele>
        <time>2012-01-29T07:51:31Z</time>
      </trkpt>
      <trkpt lat="45.9208" lon="6.48297">
        <ele>1449.4</ele>
        <time>2012-01-29T07:51:32Z</time>
      </trkpt>
      <trkpt lat="45.9208" lon="6.48319">
        <ele>1449</ele>
        <time>2012-01-29T07:51:47Z</time>
      </trkpt>
      <trkpt lat="45.9208" lon="6.48332">
        <ele>1448.3</ele>
        <time>2012-01-29T07:51:55Z</time>
      </trkpt>
      <trkpt lat="45.92078" lon="6.48344">
        <ele>1450.9</ele>
        <time>2012-01-29T07:52:04Z</time>
      </trkpt>
      <trkpt lat="45.92077" lon="6.48356">
        <ele>1451.6</ele>
        <time>2012-01-29T07:52:12Z</time>
      </trkpt>
      <trkpt lat="45.92077" lon="6.48368">
        <ele>1454.1</ele>
        <time>2012-01-29T07:52:21Z</time>
      </trkpt>
      <trkpt lat="45.92077" lon="6.4838">
        <ele>1454.8</ele>
        <time>2012-01-29T07:52:29Z</time>
      </trkpt>
      <trkpt lat="45.92077" lon="6.48392">
        <ele>1455.1</ele>
        <time>2012-01-29T07:52:38Z</time>
      </trkpt>
      <trkpt lat="45.92077" lon="6.48393">
        <ele>1455.5</ele>
        <time>2012-01-29T07:52:39Z</time>
      </trkpt>
      <trkpt lat="45.92077" lon="6.48417">
        <ele>1457.5</ele>
        <time>2012-01-29T07:52:56Z</time>
      </trkpt>
      <trkpt lat="45.92075" lon="6.48428">
        <ele>1460.1</ele>
        <time>2012-01-29T07:53:04Z</time>
      </trkpt>
      <trkpt lat="45.92074" lon="6.4844">
        <ele>1462.3</ele>
        <time>2012-01-29T07:53:12Z</time>
      </trkpt>
      <trkpt lat="45.92074" lon="6.48452">
        <ele>1463.5</ele>
        <time>2012-01-29T07:53:20Z</time>
      </trkpt>
      <trkpt lat="45.92075" lon="6.48465">
        <ele>1466.6</ele>
        <time>2012-01-29T07:53:30Z</time>
      </trkpt>
      <trkpt lat="45.92077" lon="6.48476">
        <ele>1469.4</ele>
        <time>2012-01-29T07:53:38Z</time>
      </trkpt>
      <trkpt lat="45.92081" lon="6.48487">
        <ele>1470.3</ele>
        <time>2012-01-29T07:53:44Z</time>
      </trkpt>
      <trkpt lat="45.92082" lon="6.48489">
        <ele>1470.4</ele>
        <time>2012-01-29T07:53:45Z</time>
      </trkpt>
      <trkpt lat="45.92097" lon="6.48497">
        <ele>1470.5</ele>
        <time>2012-01-29T07:53:56Z</time>
      </trkpt>
      <trkpt lat="45.92104" lon="6.485">
        <ele>1469.9</ele>
        <time>2012-01-29T07:54:01Z</time>
      </trkpt>
      <trkpt lat="45.92113" lon="6.48503">
        <ele>1469.1</ele>
        <time>2012-01-29T07:54:07Z</time>
      </trkpt>
      <trkpt lat="45.92121" lon="6.48504">
        <ele>1468.3</ele>
        <time>2012-01-29T07:54:13Z</time>
      </trkpt>
      <trkpt lat="45.9213" lon="6.48505">
        <ele>1467.5</ele>
        <time>2012-01-29T07:54:19Z</time>
      </trkpt>
      <trkpt lat="45.92138" lon="6.48505">
        <ele>1467</ele>
        <time>2012-01-29T07:54:26Z</time>
      </trkpt>
      <trkpt lat="45.92146" lon="6.48507">
        <ele>1466.5</ele>
        <time>2012-01-29T07:54:32Z</time>
      </trkpt>
      <trkpt lat="45.92147" lon="6.4852">
        <ele>1467.9</ele>
        <time>2012-01-29T07:54:43Z</time>
      </trkpt>
      <trkpt lat="45.92146" lon="6.48532">
        <ele>1467.5</ele>
        <time>2012-01-29T07:54:50Z</time>
      </trkpt>
      <trkpt lat="45.92145" lon="6.48534">
        <ele>1467.5</ele>
        <time>2012-01-29T07:54:51Z</time>
      </trkpt>
      <trkpt lat="45.92144" lon="6.48556">
        <ele>1467.8</ele>
        <time>2012-01-29T07:55:05Z</time>
      </trkpt>
      <trkpt lat="45.92142" lon="6.48567">
        <ele>1468.1</ele>
        <time>2012-01-29T07:55:12Z</time>
      </trkpt>
      <trkpt lat="45.92138" lon="6.48578">
        <ele>1468.6</ele>
        <time>2012-01-29T07:55:19Z</time>
      </trkpt>
      <trkpt lat="45.92135" lon="6.48589">
        <ele>1469.5</ele>
        <time>2012-01-29T07:55:25Z</time>
      </trkpt>
      <trkpt lat="45.92132" lon="6.48599">
        <ele>1470</ele>
        <time>2012-01-29T07:55:31Z</time>
      </trkpt>
      <trkpt lat="45.92127" lon="6.48611">
        <ele>1470.6</ele>
        <time>2012-01-29T07:55:38Z</time>
      </trkpt>
      <trkpt lat="45.92124" lon="6.48621">
        <ele>1471.6</ele>
        <time>2012-01-29T07:55:44Z</time>
      </trkpt>
      <trkpt lat="45.92121" lon="6.48631">
        <ele>1471.1</ele>
        <time>2012-01-29T07:55:49Z</time>
      </trkpt>
      <trkpt lat="45.92119" lon="6.48643">
        <ele>1470.9</ele>
        <time>2012-01-29T07:55:55Z</time>
      </trkpt>
      <trkpt lat="45.92119" lon="6.48645">
        <ele>1470.9</ele>
        <time>2012-01-29T07:55:56Z</time>
      </trkpt>
      <trkpt lat="45.92119" lon="6.48666">
        <ele>1470.1</ele>
        <time>2012-01-29T07:56:06Z</time>
      </trkpt>
      <trkpt lat="45.92124" lon="6.48674">
        <ele>1470.8</ele>
        <time>2012-01-29T07:56:11Z</time>
      </trkpt>
      <trkpt lat="45.9213" lon="6.48682">
        <ele>1471</ele>
        <time>2012-01-29T07:56:16Z</time>
      </trkpt>
      <trkpt lat="45.92136" lon="6.4869">
        <ele>1470.8</ele>
        <time>2012-01-29T07:56:21Z</time>
      </trkpt>
      <trkpt lat="45.92142" lon="6.48698">
        <ele>1471.8</ele>
        <time>2012-01-29T07:56:27Z</time>
      </trkpt>
      <trkpt lat="45.92147" lon="6.48708">
        <ele>1472.3</ele>
        <time>2012-01-29T07:56:32Z</time>
      </trkpt>
      <trkpt lat="45.92152" lon="6.48717">
        <ele>1472.4</ele>
        <time>2012-01-29T07:56:36Z</time>
      </trkpt>
      <trkpt lat="45.92155" lon="6.48727">
        <ele>1472.5</ele>
        <time>2012-01-29T07:56:40Z</time>
      </trkpt>
      <trkpt lat="45.92158" lon="6.4874">
        <ele>1471</ele>
        <time>2012-01-29T07:56:44Z</time>
      </trkpt>
      <trkpt lat="45.92164" lon="6.48762">
        <ele>1470</ele>
        <time>2012-01-29T07:56:52Z</time>
      </trkpt>
      <trkpt lat="45.92166" lon="6.48774">
        <ele>1470.5</ele>
        <time>2012-01-29T07:56:59Z</time>
      </trkpt>
      <trkpt lat="45.92167" lon="6.48776">
        <ele>1470.3</ele>
        <time>2012-01-29T07:57:00Z</time>
      </trkpt>
      <trkpt lat="45.92174" lon="6.48795">
        <ele>1468</ele>
        <time>2012-01-29T07:57:07Z</time>
      </trkpt>
      <trkpt lat="45.92175" lon="6.48806">
        <ele>1466.4</ele>
        <time>2012-01-29T07:57:11Z</time>
      </trkpt>
      <trkpt lat="45.92175" lon="6.48817">
        <ele>1464.5</ele>
        <time>2012-01-29T07:57:15Z</time>
      </trkpt>
      <trkpt lat="45.92172" lon="6.48828">
        <ele>1463</ele>
        <time>2012-01-29T07:57:19Z</time>
      </trkpt>
      <trkpt lat="45.92169" lon="6.48837">
        <ele>1461.5</ele>
        <time>2012-01-29T07:57:22Z</time>
      </trkpt>
      <trkpt lat="45.92167" lon="6.4885">
        <ele>1459.5</ele>
        <time>2012-01-29T07:57:27Z</time>
      </trkpt>
      <trkpt lat="45.92164" lon="6.48861">
        <ele>1457.9</ele>
        <time>2012-01-29T07:57:33Z</time>
      </trkpt>
      <trkpt lat="45.92162" lon="6.48872">
        <ele>1456.1</ele>
        <time>2012-01-29T07:57:39Z</time>
      </trkpt>
      <trkpt lat="45.92161" lon="6.48885">
        <ele>1455</ele>
        <time>2012-01-29T07:57:46Z</time>
      </trkpt>
      <trkpt lat="45.92161" lon="6.48897">
        <ele>1454.9</ele>
        <time>2012-01-29T07:57:52Z</time>
      </trkpt>
      <trkpt lat="45.92161" lon="6.48909">
        <ele>1455</ele>
        <time>2012-01-29T07:57:59Z</time>
      </trkpt>
      <trkpt lat="45.92161" lon="6.48921">
        <ele>1456.1</ele>
        <time>2012-01-29T07:58:07Z</time>
      </trkpt>
      <trkpt lat="45.92161" lon="6.48922">
        <ele>1456.5</ele>
        <time>2012-01-29T07:58:08Z</time>
      </trkpt>
      <trkpt lat="45.92159" lon="6.48944">
        <ele>1460</ele>
        <time>2012-01-29T07:58:23Z</time>
      </trkpt>
      <trkpt lat="45.92159" lon="6.48956">
        <ele>1461.5</ele>
        <time>2012-01-29T07:58:31Z</time>
      </trkpt>
      <trkpt lat="45.92158" lon="6.48968">
        <ele>1462.4</ele>
        <time>2012-01-29T07:58:38Z</time>
      </trkpt>
      <trkpt lat="45.92159" lon="6.48979">
        <ele>1463.8</ele>
        <time>2012-01-29T07:58:46Z</time>
      </trkpt>
      <trkpt lat="45.92159" lon="6.48992">
        <ele>1465.4</ele>
        <time>2012-01-29T07:58:55Z</time>
      </trkpt>
      <trkpt lat="45.9216" lon="6.49004">
        <ele>1460.3</ele>
        <time>2012-01-29T08:00:39Z</time>
      </trkpt>
      <trkpt lat="45.9216" lon="6.49005">
        <ele>1460.5</ele>
        <time>2012-01-29T08:00:40Z</time>
      </trkpt>
      <trkpt lat="45.92163" lon="6.49028">
        <ele>1465.1</ele>
        <time>2012-01-29T08:01:00Z</time>
      </trkpt>
      <trkpt lat="45.92165" lon="6.4904">
        <ele>1467.5</ele>
        <time>2012-01-29T08:01:08Z</time>
      </trkpt>
      <trkpt lat="45.92168" lon="6.49051">
        <ele>1471</ele>
        <time>2012-01-29T08:01:17Z</time>
      </trkpt>
      <trkpt lat="45.92171" lon="6.49063">
        <ele>1474.5</ele>
        <time>2012-01-29T08:01:26Z</time>
      </trkpt>
      <trkpt lat="45.92173" lon="6.49074">
        <ele>1476.3</ele>
        <time>2012-01-29T08:01:34Z</time>
      </trkpt>
      <trkpt lat="45.92177" lon="6.49086">
        <ele>1479.1</ele>
        <time>2012-01-29T08:01:43Z</time>
      </trkpt>
      <trkpt lat="45.92177" lon="6.49087">
        <ele>1479.4</ele>
        <time>2012-01-29T08:01:44Z</time>
      </trkpt>
      <trkpt lat="45.92179" lon="6.49109">
        <ele>1483</ele>
        <time>2012-01-29T08:02:01Z</time>
      </trkpt>
      <trkpt lat="45.92177" lon="6.49121">
        <ele>1484.1</ele>
        <time>2012-01-29T08:02:10Z</time>
      </trkpt>
      <trkpt lat="45.92177" lon="6.49134">
        <ele>1485.9</ele>
        <time>2012-01-29T08:02:20Z</time>
      </trkpt>
      <trkpt lat="45.92178" lon="6.49146">
        <ele>1488.6</ele>
        <time>2012-01-29T08:02:30Z</time>
      </trkpt>
      <trkpt lat="45.92178" lon="6.49158">
        <ele>1491</ele>
        <time>2012-01-29T08:02:40Z</time>
      </trkpt>
      <trkpt lat="45.92176" lon="6.4917">
        <ele>1492.4</ele>
        <time>2012-01-29T08:02:50Z</time>
      </trkpt>
      <trkpt lat="45.92177" lon="6.49171">
        <ele>1492.5</ele>
        <time>2012-01-29T08:02:51Z</time>
      </trkpt>
      <trkpt lat="45.92183" lon="6.49192">
        <ele>1499</ele>
        <time>2012-01-29T08:03:11Z</time>
      </trkpt>
      <trkpt lat="45.92184" lon="6.49205">
        <ele>1502</ele>
        <time>2012-01-29T08:03:22Z</time>
      </trkpt>
      <trkpt lat="45.92185" lon="6.49218">
        <ele>1505</ele>
        <time>2012-01-29T08:03:33Z</time>
      </trkpt>
      <trkpt lat="45.92185" lon="6.4923">
        <ele>1507</ele>
        <time>2012-01-29T08:03:44Z</time>
      </trkpt>
      <trkpt lat="45.92185" lon="6.49242">
        <ele>1508.8</ele>
        <time>2012-01-29T08:03:55Z</time>
      </trkpt>
      <trkpt lat="45.92185" lon="6.49243">
        <ele>1508.8</ele>
        <time>2012-01-29T08:03:56Z</time>
      </trkpt>
      <trkpt lat="45.92188" lon="6.49266">
        <ele>1514.5</ele>
        <time>2012-01-29T08:04:17Z</time>
      </trkpt>
      <trkpt lat="45.92191" lon="6.49277">
        <ele>1516.5</ele>
        <time>2012-01-29T08:04:27Z</time>
      </trkpt>
      <trkpt lat="45.92193" lon="6.49289">
        <ele>1517.3</ele>
        <time>2012-01-29T08:04:36Z</time>
      </trkpt>
      <trkpt lat="45.92192" lon="6.49301">
        <ele>1518.6</ele>
        <time>2012-01-29T08:04:46Z</time>
      </trkpt>
      <trkpt lat="45.92192" lon="6.49313">
        <ele>1521</ele>
        <time>2012-01-29T08:04:56Z</time>
      </trkpt>
      <trkpt lat="45.92191" lon="6.49314">
        <ele>1521.5</ele>
        <time>2012-01-29T08:04:57Z</time>
      </trkpt>
      <trkpt lat="45.92189" lon="6.49337">
        <ele>1530.1</ele>
        <time>2012-01-29T08:05:18Z</time>
      </trkpt>
      <trkpt lat="45.92188" lon="6.49349">
        <ele>1533</ele>
        <time>2012-01-29T08:05:29Z</time>
      </trkpt>
      <trkpt lat="45.92187" lon="6.49361">
        <ele>1535.5</ele>
        <time>2012-01-29T08:05:40Z</time>
      </trkpt>
      <trkpt lat="45.92189" lon="6.49372">
        <ele>1537.6</ele>
        <time>2012-01-29T08:05:50Z</time>
      </trkpt>
      <trkpt lat="45.92191" lon="6.49384">
        <ele>1538.6</ele>
        <time>2012-01-29T08:06:00Z</time>
      </trkpt>
      <trkpt lat="45.92191" lon="6.49385">
        <ele>1539</ele>
        <time>2012-01-29T08:06:01Z</time>
      </trkpt>
      <trkpt lat="45.92194" lon="6.49409">
        <ele>1545.1</ele>
        <time>2012-01-29T08:06:23Z</time>
      </trkpt>
      <trkpt lat="45.92197" lon="6.4942">
        <ele>1547.8</ele>
        <time>2012-01-29T08:06:33Z</time>
      </trkpt>
      <trkpt lat="45.92204" lon="6.49428">
        <ele>1548.9</ele>
        <time>2012-01-29T08:06:42Z</time>
      </trkpt>
      <trkpt lat="45.9221" lon="6.49437">
        <ele>1549.4</ele>
        <time>2012-01-29T08:06:50Z</time>
      </trkpt>
      <trkpt lat="45.92215" lon="6.49447">
        <ele>1548.1</ele>
        <time>2012-01-29T08:06:57Z</time>
      </trkpt>
      <trkpt lat="45.9222" lon="6.49457">
        <ele>1546.6</ele>
        <time>2012-01-29T08:07:05Z</time>
      </trkpt>
      <trkpt lat="45.92221" lon="6.49458">
        <ele>1546</ele>
        <time>2012-01-29T08:07:06Z</time>
      </trkpt>
      <trkpt lat="45.92235" lon="6.49468">
        <ele>1551.5</ele>
        <time>2012-01-29T08:07:26Z</time>
      </trkpt>
      <trkpt lat="45.92242" lon="6.49476">
        <ele>1554.1</ele>
        <time>2012-01-29T08:07:45Z</time>
      </trkpt>
      <trkpt lat="45.92249" lon="6.49484">
        <ele>1553.9</ele>
        <time>2012-01-29T08:07:55Z</time>
      </trkpt>
      <trkpt lat="45.92256" lon="6.49491">
        <ele>1558</ele>
        <time>2012-01-29T08:08:06Z</time>
      </trkpt>
      <trkpt lat="45.92257" lon="6.49492">
        <ele>1558.3</ele>
        <time>2012-01-29T08:08:07Z</time>
      </trkpt>
      <trkpt lat="45.92243" lon="6.49504">
        <ele>1565</ele>
        <time>2012-01-29T08:08:33Z</time>
      </trkpt>
      <trkpt lat="45.92235" lon="6.4951">
        <ele>1569</ele>
        <time>2012-01-29T08:08:45Z</time>
      </trkpt>
      <trkpt lat="45.92242" lon="6.49518">
        <ele>1572.9</ele>
        <time>2012-01-29T08:09:00Z</time>
      </trkpt>
      <trkpt lat="45.92249" lon="6.49525">
        <ele>1574.8</ele>
        <time>2012-01-29T08:09:09Z</time>
      </trkpt>
      <trkpt lat="45.9225" lon="6.49526">
        <ele>1575</ele>
        <time>2012-01-29T08:09:10Z</time>
      </trkpt>
      <trkpt lat="45.9226" lon="6.49534">
        <ele>1575.9</ele>
        <time>2012-01-29T08:09:23Z</time>
      </trkpt>
      <trkpt lat="45.92268" lon="6.49539">
        <ele>1577</ele>
        <time>2012-01-29T08:09:34Z</time>
      </trkpt>
      <trkpt lat="45.92276" lon="6.49544">
        <ele>1579.5</ele>
        <time>2012-01-29T08:09:44Z</time>
      </trkpt>
      <trkpt lat="45.92277" lon="6.49547">
        <ele>1581.5</ele>
        <time>2012-01-29T08:09:50Z</time>
      </trkpt>
      <trkpt lat="45.92269" lon="6.49556">
        <ele>1597.5</ele>
        <time>2012-01-29T08:10:12Z</time>
      </trkpt>
      <trkpt lat="45.92276" lon="6.4956">
        <ele>1600.1</ele>
        <time>2012-01-29T08:10:21Z</time>
      </trkpt>
      <trkpt lat="45.92284" lon="6.49566">
        <ele>1599.5</ele>
        <time>2012-01-29T08:10:29Z</time>
      </trkpt>
      <trkpt lat="45.92291" lon="6.49573">
        <ele>1596.9</ele>
        <time>2012-01-29T08:10:36Z</time>
      </trkpt>
      <trkpt lat="45.92283" lon="6.49578">
        <ele>1597</ele>
        <time>2012-01-29T08:10:46Z</time>
      </trkpt>
      <trkpt lat="45.92275" lon="6.4958">
        <ele>1598.4</ele>
        <time>2012-01-29T08:10:54Z</time>
      </trkpt>
      <trkpt lat="45.92267" lon="6.49582">
        <ele>1602.8</ele>
        <time>2012-01-29T08:11:03Z</time>
      </trkpt>
      <trkpt lat="45.92258" lon="6.49584">
        <ele>1609.6</ele>
        <time>2012-01-29T08:11:12Z</time>
      </trkpt>
      <trkpt lat="45.92251" lon="6.49588">
        <ele>1616</ele>
        <time>2012-01-29T08:11:23Z</time>
      </trkpt>
      <trkpt lat="45.9225" lon="6.49589">
        <ele>1616.5</ele>
        <time>2012-01-29T08:11:24Z</time>
      </trkpt>
      <trkpt lat="45.92235" lon="6.49599">
        <ele>1622.1</ele>
        <time>2012-01-29T08:11:49Z</time>
      </trkpt>
      <trkpt lat="45.92227" lon="6.49598">
        <ele>1622.6</ele>
        <time>2012-01-29T08:11:58Z</time>
      </trkpt>
      <trkpt lat="45.92226" lon="6.4961">
        <ele>1616.5</ele>
        <time>2012-01-29T08:12:25Z</time>
      </trkpt>
      <trkpt lat="45.92226" lon="6.49611">
        <ele>1616.6</ele>
        <time>2012-01-29T08:12:26Z</time>
      </trkpt>
      <trkpt lat="45.92231" lon="6.49634">
        <ele>1621.1</ele>
        <time>2012-01-29T08:12:49Z</time>
      </trkpt>
      <trkpt lat="45.92224" lon="6.49638">
        <ele>1624.5</ele>
        <time>2012-01-29T08:13:06Z</time>
      </trkpt>
      <trkpt lat="45.92215" lon="6.49636">
        <ele>1628.8</ele>
        <time>2012-01-29T08:13:24Z</time>
      </trkpt>
      <trkpt lat="45.92207" lon="6.49633">
        <ele>1632</ele>
        <time>2012-01-29T08:13:33Z</time>
      </trkpt>
      <trkpt lat="45.92206" lon="6.49633">
        <ele>1632.5</ele>
        <time>2012-01-29T08:13:34Z</time>
      </trkpt>
      <trkpt lat="45.9219" lon="6.49631">
        <ele>1639.8</ele>
        <time>2012-01-29T08:13:52Z</time>
      </trkpt>
      <trkpt lat="45.92181" lon="6.4963">
        <ele>1643</ele>
        <time>2012-01-29T08:14:03Z</time>
      </trkpt>
      <trkpt lat="45.92173" lon="6.49627">
        <ele>1644</ele>
        <time>2012-01-29T08:14:18Z</time>
      </trkpt>
      <trkpt lat="45.92164" lon="6.49629">
        <ele>1646.6</ele>
        <time>2012-01-29T08:14:32Z</time>
      </trkpt>
      <trkpt lat="45.92156" lon="6.49633">
        <ele>1655</ele>
        <time>2012-01-29T08:14:49Z</time>
      </trkpt>
      <trkpt lat="45.92155" lon="6.49633">
        <ele>1655.5</ele>
        <time>2012-01-29T08:14:50Z</time>
      </trkpt>
      <trkpt lat="45.92146" lon="6.49654">
        <ele>1663.9</ele>
        <time>2012-01-29T08:15:17Z</time>
      </trkpt>
      <trkpt lat="45.92143" lon="6.49666">
        <ele>1666.3</ele>
        <time>2012-01-29T08:15:28Z</time>
      </trkpt>
      <trkpt lat="45.92141" lon="6.49678">
        <ele>1666.4</ele>
        <time>2012-01-29T08:15:39Z</time>
      </trkpt>
      <trkpt lat="45.92138" lon="6.4969">
        <ele>1670.6</ele>
        <time>2012-01-29T08:15:52Z</time>
      </trkpt>
      <trkpt lat="45.92138" lon="6.49691">
        <ele>1671</ele>
        <time>2012-01-29T08:15:53Z</time>
      </trkpt>
      <trkpt lat="45.9213" lon="6.49711">
        <ele>1684.8</ele>
        <time>2012-01-29T08:16:19Z</time>
      </trkpt>
      <trkpt lat="45.92129" lon="6.49723">
        <ele>1689.6</ele>
        <time>2012-01-29T08:16:32Z</time>
      </trkpt>
      <trkpt lat="45.92131" lon="6.49736">
        <ele>1690.9</ele>
        <time>2012-01-29T08:16:44Z</time>
      </trkpt>
      <trkpt lat="45.92134" lon="6.49748">
        <ele>1694</ele>
        <time>2012-01-29T08:16:57Z</time>
      </trkpt>
      <trkpt lat="45.92134" lon="6.49749">
        <ele>1694.1</ele>
        <time>2012-01-29T08:16:58Z</time>
      </trkpt>
      <trkpt lat="45.92128" lon="6.49766">
        <ele>1698.4</ele>
        <time>2012-01-29T08:17:31Z</time>
      </trkpt>
      <trkpt lat="45.92126" lon="6.49778">
        <ele>1699.8</ele>
        <time>2012-01-29T08:17:53Z</time>
      </trkpt>
      <trkpt lat="45.92129" lon="6.4979">
        <ele>1701.9</ele>
        <time>2012-01-29T08:18:04Z</time>
      </trkpt>
      <trkpt lat="45.92129" lon="6.49791">
        <ele>1702.1</ele>
        <time>2012-01-29T08:18:05Z</time>
      </trkpt>
      <trkpt lat="45.92122" lon="6.49812">
        <ele>1707.5</ele>
        <time>2012-01-29T08:18:26Z</time>
      </trkpt>
      <trkpt lat="45.92115" lon="6.4982">
        <ele>1710.8</ele>
        <time>2012-01-29T08:18:37Z</time>
      </trkpt>
      <trkpt lat="45.92107" lon="6.49818">
        <ele>1713.1</ele>
        <time>2012-01-29T08:19:12Z</time>
      </trkpt>
      <trkpt lat="45.92106" lon="6.49817">
        <ele>1713.1</ele>
        <time>2012-01-29T08:19:13Z</time>
      </trkpt>
      <trkpt lat="45.92095" lon="6.49801">
        <ele>1715.1</ele>
        <time>2012-01-29T08:19:36Z</time>
      </trkpt>
      <trkpt lat="45.92088" lon="6.49809">
        <ele>1718.6</ele>
        <time>2012-01-29T08:19:50Z</time>
      </trkpt>
      <trkpt lat="45.92087" lon="6.49821">
        <ele>1720.5</ele>
        <time>2012-01-29T08:20:00Z</time>
      </trkpt>
      <trkpt lat="45.92085" lon="6.49833">
        <ele>1721.8</ele>
        <time>2012-01-29T08:20:09Z</time>
      </trkpt>
      <trkpt lat="45.92081" lon="6.49843">
        <ele>1725</ele>
        <time>2012-01-29T08:20:19Z</time>
      </trkpt>
      <trkpt lat="45.9208" lon="6.49844">
        <ele>1725.5</ele>
        <time>2012-01-29T08:20:20Z</time>
      </trkpt>
      <trkpt lat="45.92068" lon="6.49851">
        <ele>1733.4</ele>
        <time>2012-01-29T08:20:57Z</time>
      </trkpt>
      <trkpt lat="45.92063" lon="6.4984">
        <ele>1737.5</ele>
        <time>2012-01-29T08:21:12Z</time>
      </trkpt>
      <trkpt lat="45.92055" lon="6.49834">
        <ele>1740.5</ele>
        <time>2012-01-29T08:21:25Z</time>
      </trkpt>
      <trkpt lat="45.92055" lon="6.49834">
        <ele>1740.9</ele>
        <time>2012-01-29T08:21:26Z</time>
      </trkpt>
      <trkpt lat="45.92045" lon="6.49853">
        <ele>1744.3</ele>
        <time>2012-01-29T08:21:56Z</time>
      </trkpt>
      <trkpt lat="45.92042" lon="6.49864">
        <ele>1744.8</ele>
        <time>2012-01-29T08:22:06Z</time>
      </trkpt>
      <trkpt lat="45.92041" lon="6.49876">
        <ele>1745.5</ele>
        <time>2012-01-29T08:22:16Z</time>
      </trkpt>
      <trkpt lat="45.92039" lon="6.49888">
        <ele>1745</ele>
        <time>2012-01-29T08:22:25Z</time>
      </trkpt>
      <trkpt lat="45.92038" lon="6.499">
        <ele>1743.9</ele>
        <time>2012-01-29T08:22:35Z</time>
      </trkpt>
      <trkpt lat="45.92038" lon="6.49901">
        <ele>1744</ele>
        <time>2012-01-29T08:22:36Z</time>
      </trkpt>
      <trkpt lat="45.92028" lon="6.49881">
        <ele>1759</ele>
        <time>2012-01-29T08:23:12Z</time>
      </trkpt>
      <trkpt lat="45.92026" lon="6.49893">
        <ele>1759.5</ele>
        <time>2012-01-29T08:23:28Z</time>
      </trkpt>
      <trkpt lat="45.92024" lon="6.49904">
        <ele>1757.5</ele>
        <time>2012-01-29T08:23:38Z</time>
      </trkpt>
      <trkpt lat="45.92024" lon="6.49905">
        <ele>1757.4</ele>
        <time>2012-01-29T08:23:39Z</time>
      </trkpt>
      <trkpt lat="45.92011" lon="6.49893">
        <ele>1764.3</ele>
        <time>2012-01-29T08:24:08Z</time>
      </trkpt>
      <trkpt lat="45.9201" lon="6.49906">
        <ele>1766.6</ele>
        <time>2012-01-29T08:24:25Z</time>
      </trkpt>
      <trkpt lat="45.92008" lon="6.49918">
        <ele>1765.5</ele>
        <time>2012-01-29T08:24:35Z</time>
      </trkpt>
      <trkpt lat="45.92006" lon="6.4993">
        <ele>1765.6</ele>
        <time>2012-01-29T08:24:45Z</time>
      </trkpt>
      <trkpt lat="45.92006" lon="6.49931">
        <ele>1765.6</ele>
        <time>2012-01-29T08:24:46Z</time>
      </trkpt>
      <trkpt lat="45.91995" lon="6.49911">
        <ele>1775.6</ele>
        <time>2012-01-29T08:25:12Z</time>
      </trkpt>
      <trkpt lat="45.9199" lon="6.49902">
        <ele>1779.5</ele>
        <time>2012-01-29T08:25:22Z</time>
      </trkpt>
      <trkpt lat="45.91982" lon="6.49896">
        <ele>1780.5</ele>
        <time>2012-01-29T08:25:31Z</time>
      </trkpt>
      <trkpt lat="45.91973" lon="6.49891">
        <ele>1781.8</ele>
        <time>2012-01-29T08:25:41Z</time>
      </trkpt>
      <trkpt lat="45.9197" lon="6.49903">
        <ele>1783.8</ele>
        <time>2012-01-29T08:25:57Z</time>
      </trkpt>
      <trkpt lat="45.9197" lon="6.49904">
        <ele>1783.6</ele>
        <time>2012-01-29T08:25:58Z</time>
      </trkpt>
      <trkpt lat="45.91973" lon="6.49927">
        <ele>1784.6</ele>
        <time>2012-01-29T08:26:18Z</time>
      </trkpt>
      <trkpt lat="45.91972" lon="6.4994">
        <ele>1785</ele>
        <time>2012-01-29T08:26:28Z</time>
      </trkpt>
      <trkpt lat="45.91965" lon="6.49933">
        <ele>1788.3</ele>
        <time>2012-01-29T08:26:43Z</time>
      </trkpt>
      <trkpt lat="45.91963" lon="6.49945">
        <ele>1791.9</ele>
        <time>2012-01-29T08:27:03Z</time>
      </trkpt>
      <trkpt lat="45.91963" lon="6.49946">
        <ele>1792</ele>
        <time>2012-01-29T08:27:04Z</time>
      </trkpt>
      <trkpt lat="45.91952" lon="6.49963">
        <ele>1796.6</ele>
        <time>2012-01-29T08:27:44Z</time>
      </trkpt>
      <trkpt lat="45.91944" lon="6.4997">
        <ele>1804.6</ele>
        <time>2012-01-29T08:28:09Z</time>
      </trkpt>
      <trkpt lat="45.91943" lon="6.4997">
        <ele>1804.8</ele>
        <time>2012-01-29T08:28:10Z</time>
      </trkpt>
      <trkpt lat="45.91929" lon="6.49959">
        <ele>1813</ele>
        <time>2012-01-29T08:28:34Z</time>
      </trkpt>
      <trkpt lat="45.91928" lon="6.49947">
        <ele>1818.5</ele>
        <time>2012-01-29T08:28:48Z</time>
      </trkpt>
      <trkpt lat="45.91926" lon="6.49935">
        <ele>1820.5</ele>
        <time>2012-01-29T08:29:00Z</time>
      </trkpt>
      <trkpt lat="45.91919" lon="6.49928">
        <ele>1824.5</ele>
        <time>2012-01-29T08:29:12Z</time>
      </trkpt>
      <trkpt lat="45.91918" lon="6.49928">
        <ele>1824.8</ele>
        <time>2012-01-29T08:29:13Z</time>
      </trkpt>
      <trkpt lat="45.91904" lon="6.49915">
        <ele>1832.3</ele>
        <time>2012-01-29T08:29:36Z</time>
      </trkpt>
      <trkpt lat="45.91896" lon="6.49915">
        <ele>1836.8</ele>
        <time>2012-01-29T08:29:57Z</time>
      </trkpt>
      <trkpt lat="45.9189" lon="6.49925">
        <ele>1837.4</ele>
        <time>2012-01-29T08:30:07Z</time>
      </trkpt>
      <trkpt lat="45.91886" lon="6.49936">
        <ele>1837.4</ele>
        <time>2012-01-29T08:30:17Z</time>
      </trkpt>
      <trkpt lat="45.91886" lon="6.49937">
        <ele>1837.4</ele>
        <time>2012-01-29T08:30:18Z</time>
      </trkpt>
      <trkpt lat="45.91877" lon="6.49958">
        <ele>1840.6</ele>
        <time>2012-01-29T08:30:37Z</time>
      </trkpt>
      <trkpt lat="45.9187" lon="6.4997">
        <ele>1843</ele>
        <time>2012-01-29T08:30:51Z</time>
      </trkpt>
      <trkpt lat="45.91864" lon="6.49961">
        <ele>1855.5</ele>
        <time>2012-01-29T08:31:12Z</time>
      </trkpt>
      <trkpt lat="45.91857" lon="6.49956">
        <ele>1857.6</ele>
        <time>2012-01-29T08:31:24Z</time>
      </trkpt>
      <trkpt lat="45.91856" lon="6.49955">
        <ele>1857.9</ele>
        <time>2012-01-29T08:31:25Z</time>
      </trkpt>
      <trkpt lat="45.91845" lon="6.49966">
        <ele>1862</ele>
        <time>2012-01-29T08:31:53Z</time>
      </trkpt>
      <trkpt lat="45.91837" lon="6.4996">
        <ele>1864.3</ele>
        <time>2012-01-29T08:32:03Z</time>
      </trkpt>
      <trkpt lat="45.9183" lon="6.49951">
        <ele>1866.9</ele>
        <time>2012-01-29T08:32:13Z</time>
      </trkpt>
      <trkpt lat="45.91829" lon="6.4994">
        <ele>1868.9</ele>
        <time>2012-01-29T08:32:22Z</time>
      </trkpt>
      <trkpt lat="45.9183" lon="6.49927">
        <ele>1870.4</ele>
        <time>2012-01-29T08:32:32Z</time>
      </trkpt>
      <trkpt lat="45.91829" lon="6.49926">
        <ele>1870.4</ele>
        <time>2012-01-29T08:32:33Z</time>
      </trkpt>
      <trkpt lat="45.91813" lon="6.4993">
        <ele>1872.5</ele>
        <time>2012-01-29T08:32:52Z</time>
      </trkpt>
      <trkpt lat="45.91805" lon="6.49934">
        <ele>1875</ele>
        <time>2012-01-29T08:33:03Z</time>
      </trkpt>
      <trkpt lat="45.91796" lon="6.49938">
        <ele>1879.8</ele>
        <time>2012-01-29T08:33:16Z</time>
      </trkpt>
      <trkpt lat="45.91788" lon="6.49943">
        <ele>1883</ele>
        <time>2012-01-29T08:33:28Z</time>
      </trkpt>
      <trkpt lat="45.9178" lon="6.49946">
        <ele>1885.9</ele>
        <time>2012-01-29T08:33:40Z</time>
      </trkpt>
      <trkpt lat="45.91779" lon="6.49946">
        <ele>1886</ele>
        <time>2012-01-29T08:33:41Z</time>
      </trkpt>
      <trkpt lat="45.91763" lon="6.49953">
        <ele>1886.6</ele>
        <time>2012-01-29T08:35:09Z</time>
      </trkpt>
      <trkpt lat="45.91762" lon="6.49953">
        <ele>1886.5</ele>
        <time>2012-01-29T08:35:10Z</time>
      </trkpt>
      <trkpt lat="45.91753" lon="6.49952">
        <ele>1887.9</ele>
        <time>2012-01-29T08:36:51Z</time>
      </trkpt>
      <trkpt lat="45.91737" lon="6.49946">
        <ele>1892.8</ele>
        <time>2012-01-29T08:37:12Z</time>
      </trkpt>
      <trkpt lat="45.91729" lon="6.49943">
        <ele>1896.4</ele>
        <time>2012-01-29T08:37:27Z</time>
      </trkpt>
      <trkpt lat="45.9172" lon="6.49943">
        <ele>1899.6</ele>
        <time>2012-01-29T08:37:39Z</time>
      </trkpt>
      <trkpt lat="45.91712" lon="6.49942">
        <ele>1903.4</ele>
        <time>2012-01-29T08:37:51Z</time>
      </trkpt>
      <trkpt lat="45.91711" lon="6.49942">
        <ele>1903.6</ele>
        <time>2012-01-29T08:37:52Z</time>
      </trkpt>
      <trkpt lat="45.91696" lon="6.49936">
        <ele>1908.5</ele>
        <time>2012-01-29T08:38:13Z</time>
      </trkpt>
      <trkpt lat="45.91688" lon="6.49929">
        <ele>1910.3</ele>
        <time>2012-01-29T08:38:24Z</time>
      </trkpt>
      <trkpt lat="45.91681" lon="6.49937">
        <ele>1914</ele>
        <time>2012-01-29T08:38:41Z</time>
      </trkpt>
      <trkpt lat="45.9168" lon="6.49949">
        <ele>1913.9</ele>
        <time>2012-01-29T08:38:52Z</time>
      </trkpt>
      <trkpt lat="45.9168" lon="6.4995">
        <ele>1914</ele>
        <time>2012-01-29T08:38:53Z</time>
      </trkpt>
      <trkpt lat="45.91678" lon="6.49974">
        <ele>1914.4</ele>
        <time>2012-01-29T08:39:14Z</time>
      </trkpt>
      <trkpt lat="45.91679" lon="6.49987">
        <ele>1916.8</ele>
        <time>2012-01-29T08:39:25Z</time>
      </trkpt>
      <trkpt lat="45.91682" lon="6.49999">
        <ele>1918.8</ele>
        <time>2012-01-29T08:39:36Z</time>
      </trkpt>
      <trkpt lat="45.91685" lon="6.5001">
        <ele>1922</ele>
        <time>2012-01-29T08:39:47Z</time>
      </trkpt>
      <trkpt lat="45.91688" lon="6.50022">
        <ele>1924.8</ele>
        <time>2012-01-29T08:39:58Z</time>
      </trkpt>
      <trkpt lat="45.91688" lon="6.50023">
        <ele>1925</ele>
        <time>2012-01-29T08:39:59Z</time>
      </trkpt>
      <trkpt lat="45.91672" lon="6.50024">
        <ele>1939.1</ele>
        <time>2012-01-29T08:40:39Z</time>
      </trkpt>
      <trkpt lat="45.91664" lon="6.50022">
        <ele>1942</ele>
        <time>2012-01-29T08:40:51Z</time>
      </trkpt>
      <trkpt lat="45.91655" lon="6.5002">
        <ele>1946</ele>
        <time>2012-01-29T08:41:03Z</time>
      </trkpt>
      <trkpt lat="45.91654" lon="6.5002">
        <ele>1946.4</ele>
        <time>2012-01-29T08:41:04Z</time>
      </trkpt>
      <trkpt lat="45.91639" lon="6.50015">
        <ele>1952.3</ele>
        <time>2012-01-29T08:41:28Z</time>
      </trkpt>
      <trkpt lat="45.9163" lon="6.50013">
        <ele>1955.5</ele>
        <time>2012-01-29T08:41:40Z</time>
      </trkpt>
      <trkpt lat="45.91622" lon="6.5001">
        <ele>1956.8</ele>
        <time>2012-01-29T08:41:51Z</time>
      </trkpt>
      <trkpt lat="45.91614" lon="6.50004">
        <ele>1958.6</ele>
        <time>2012-01-29T08:42:02Z</time>
      </trkpt>
      <trkpt lat="45.91607" lon="6.49995">
        <ele>1961.5</ele>
        <time>2012-01-29T08:42:22Z</time>
      </trkpt>
      <trkpt lat="45.91607" lon="6.49995">
        <ele>1961.8</ele>
        <time>2012-01-29T08:42:23Z</time>
      </trkpt>
      <trkpt lat="45.91599" lon="6.49974">
        <ele>1967.4</ele>
        <time>2012-01-29T08:42:46Z</time>
      </trkpt>
      <trkpt lat="45.91592" lon="6.49968">
        <ele>1970.3</ele>
        <time>2012-01-29T08:42:57Z</time>
      </trkpt>
      <trkpt lat="45.91583" lon="6.49969">
        <ele>1981.9</ele>
        <time>2012-01-29T08:43:31Z</time>
      </trkpt>
      <trkpt lat="45.91582" lon="6.49969">
        <ele>1982.3</ele>
        <time>2012-01-29T08:43:32Z</time>
      </trkpt>
      <trkpt lat="45.91566" lon="6.49969">
        <ele>1984.8</ele>
        <time>2012-01-29T08:43:50Z</time>
      </trkpt>
      <trkpt lat="45.91558" lon="6.49967">
        <ele>1985</ele>
        <time>2012-01-29T08:43:59Z</time>
      </trkpt>
      <trkpt lat="45.91551" lon="6.49961">
        <ele>1985.8</ele>
        <time>2012-01-29T08:44:09Z</time>
      </trkpt>
      <trkpt lat="45.91542" lon="6.49962">
        <ele>1986.6</ele>
        <time>2012-01-29T08:44:25Z</time>
      </trkpt>
      <trkpt lat="45.91537" lon="6.49973">
        <ele>1985</ele>
        <time>2012-01-29T08:44:36Z</time>
      </trkpt>
      <trkpt lat="45.91537" lon="6.49974">
        <ele>1984.9</ele>
        <time>2012-01-29T08:44:37Z</time>
      </trkpt>
      <trkpt lat="45.91525" lon="6.49982">
        <ele>1989</ele>
        <time>2012-01-29T08:45:00Z</time>
      </trkpt>
      <trkpt lat="45.91517" lon="6.49978">
        <ele>1993.5</ele>
        <time>2012-01-29T08:45:13Z</time>
      </trkpt>
      <trkpt lat="45.9151" lon="6.49985">
        <ele>1998.9</ele>
        <time>2012-01-29T08:45:30Z</time>
      </trkpt>
      <trkpt lat="45.91504" lon="6.49994">
        <ele>2002.5</ele>
        <time>2012-01-29T08:45:43Z</time>
      </trkpt>
      <trkpt lat="45.91504" lon="6.49995">
        <ele>2002.8</ele>
        <time>2012-01-29T08:45:44Z</time>
      </trkpt>
      <trkpt lat="45.91498" lon="6.50018">
        <ele>2004</ele>
        <time>2012-01-29T08:46:05Z</time>
      </trkpt>
      <trkpt lat="45.9149" lon="6.50019">
        <ele>2007</ele>
        <time>2012-01-29T08:46:24Z</time>
      </trkpt>
      <trkpt lat="45.91481" lon="6.50017">
        <ele>2014.8</ele>
        <time>2012-01-29T08:46:46Z</time>
      </trkpt>
      <trkpt lat="45.9148" lon="6.50017">
        <ele>2015</ele>
        <time>2012-01-29T08:46:47Z</time>
      </trkpt>
      <trkpt lat="45.91464" lon="6.50017">
        <ele>2019</ele>
        <time>2012-01-29T08:47:18Z</time>
      </trkpt>
      <trkpt lat="45.91458" lon="6.50026">
        <ele>2019.5</ele>
        <time>2012-01-29T08:47:30Z</time>
      </trkpt>
      <trkpt lat="45.91451" lon="6.50035">
        <ele>2020</ele>
        <time>2012-01-29T08:47:41Z</time>
      </trkpt>
      <trkpt lat="45.91443" lon="6.50036">
        <ele>2025.6</ele>
        <time>2012-01-29T08:48:00Z</time>
      </trkpt>
      <trkpt lat="45.91442" lon="6.50036">
        <ele>2026</ele>
        <time>2012-01-29T08:48:01Z</time>
      </trkpt>
      <trkpt lat="45.91428" lon="6.50047">
        <ele>2025.1</ele>
        <time>2012-01-29T08:48:34Z</time>
      </trkpt>
      <trkpt lat="45.9142" lon="6.50045">
        <ele>2032.1</ele>
        <time>2012-01-29T08:48:55Z</time>
      </trkpt>
      <trkpt lat="45.91414" lon="6.50054">
        <ele>2041</ele>
        <time>2012-01-29T08:49:16Z</time>
      </trkpt>
      <trkpt lat="45.91414" lon="6.50055">
        <ele>2041.5</ele>
        <time>2012-01-29T08:49:17Z</time>
      </trkpt>
      <trkpt lat="45.91403" lon="6.50073">
        <ele>2047</ele>
        <time>2012-01-29T08:49:39Z</time>
      </trkpt>
      <trkpt lat="45.914" lon="6.50085">
        <ele>2050.5</ele>
        <time>2012-01-29T08:49:51Z</time>
      </trkpt>
      <trkpt lat="45.91393" lon="6.50077">
        <ele>2060.6</ele>
        <time>2012-01-29T08:50:15Z</time>
      </trkpt>
      <trkpt lat="45.91389" lon="6.50067">
        <ele>2065.3</ele>
        <time>2012-01-29T08:50:33Z</time>
      </trkpt>
      <trkpt lat="45.91389" lon="6.50066">
        <ele>2065.6</ele>
        <time>2012-01-29T08:50:34Z</time>
      </trkpt>
      <trkpt lat="45.91378" lon="6.50085">
        <ele>2068.6</ele>
        <time>2012-01-29T08:50:59Z</time>
      </trkpt>
      <trkpt lat="45.91373" lon="6.50096">
        <ele>2070.8</ele>
        <time>2012-01-29T08:51:12Z</time>
      </trkpt>
      <trkpt lat="45.91369" lon="6.50108">
        <ele>2074</ele>
        <time>2012-01-29T08:51:28Z</time>
      </trkpt>
      <trkpt lat="45.91361" lon="6.50103">
        <ele>2076.5</ele>
        <time>2012-01-29T08:51:45Z</time>
      </trkpt>
      <trkpt lat="45.91361" lon="6.50103">
        <ele>2076.6</ele>
        <time>2012-01-29T08:51:46Z</time>
      </trkpt>
      <trkpt lat="45.91349" lon="6.50118">
        <ele>2083.6</ele>
        <time>2012-01-29T08:52:28Z</time>
      </trkpt>
      <trkpt lat="45.91341" lon="6.50123">
        <ele>2093.1</ele>
        <time>2012-01-29T08:53:17Z</time>
      </trkpt>
      <trkpt lat="45.9134" lon="6.50122">
        <ele>2093.3</ele>
        <time>2012-01-29T08:53:18Z</time>
      </trkpt>
      <trkpt lat="45.91328" lon="6.50127">
        <ele>2098</ele>
        <time>2012-01-29T08:53:53Z</time>
      </trkpt>
      <trkpt lat="45.91328" lon="6.50139">
        <ele>2099.5</ele>
        <time>2012-01-29T08:54:04Z</time>
      </trkpt>
      <trkpt lat="45.91329" lon="6.50151">
        <ele>2102</ele>
        <time>2012-01-29T08:54:15Z</time>
      </trkpt>
      <trkpt lat="45.91321" lon="6.50157">
        <ele>2111</ele>
        <time>2012-01-29T08:54:49Z</time>
      </trkpt>
      <trkpt lat="45.91321" lon="6.50158">
        <ele>2111.3</ele>
        <time>2012-01-29T08:54:50Z</time>
      </trkpt>
      <trkpt lat="45.91321" lon="6.50182">
        <ele>2115.1</ele>
        <time>2012-01-29T08:55:14Z</time>
      </trkpt>
      <trkpt lat="45.91313" lon="6.50188">
        <ele>2123.3</ele>
        <time>2012-01-29T08:55:42Z</time>
      </trkpt>
      <trkpt lat="45.9131" lon="6.502">
        <ele>2128.1</ele>
        <time>2012-01-29T08:56:10Z</time>
      </trkpt>
      <trkpt lat="45.9131" lon="6.502">
        <ele>2128.3</ele>
        <time>2012-01-29T08:56:11Z</time>
      </trkpt>
      <trkpt lat="45.91311" lon="6.50224">
        <ele>2133.3</ele>
        <time>2012-01-29T08:56:38Z</time>
      </trkpt>
      <trkpt lat="45.91308" lon="6.50236">
        <ele>2135.6</ele>
        <time>2012-01-29T08:56:51Z</time>
      </trkpt>
      <trkpt lat="45.91306" lon="6.50248">
        <ele>2139.1</ele>
        <time>2012-01-29T08:57:03Z</time>
      </trkpt>
      <trkpt lat="45.91297" lon="6.50248">
        <ele>2147</ele>
        <time>2012-01-29T08:57:34Z</time>
      </trkpt>
      <trkpt lat="45.91297" lon="6.50248">
        <ele>2147.1</ele>
        <time>2012-01-29T08:57:35Z</time>
      </trkpt>
      <trkpt lat="45.91286" lon="6.50265">
        <ele>2154.1</ele>
        <time>2012-01-29T08:58:15Z</time>
      </trkpt>
      <trkpt lat="45.91283" lon="6.50277">
        <ele>2158.8</ele>
        <time>2012-01-29T08:58:30Z</time>
      </trkpt>
      <trkpt lat="45.91282" lon="6.50289">
        <ele>2162.3</ele>
        <time>2012-01-29T08:58:57Z</time>
      </trkpt>
      <trkpt lat="45.91281" lon="6.5029">
        <ele>2162.6</ele>
        <time>2012-01-29T08:58:58Z</time>
      </trkpt>
      <trkpt lat="45.91277" lon="6.50312">
        <ele>2168.1</ele>
        <time>2012-01-29T08:59:21Z</time>
      </trkpt>
      <trkpt lat="45.91276" lon="6.50324">
        <ele>2169.8</ele>
        <time>2012-01-29T08:59:32Z</time>
      </trkpt>
      <trkpt lat="45.91269" lon="6.50332">
        <ele>2173.1</ele>
        <time>2012-01-29T08:59:55Z</time>
      </trkpt>
      <trkpt lat="45.91262" lon="6.50324">
        <ele>2174.3</ele>
        <time>2012-01-29T09:00:12Z</time>
      </trkpt>
      <trkpt lat="45.91261" lon="6.50324">
        <ele>2174.5</ele>
        <time>2012-01-29T09:00:13Z</time>
      </trkpt>
      <trkpt lat="45.91257" lon="6.50348">
        <ele>2180.8</ele>
        <time>2012-01-29T09:00:40Z</time>
      </trkpt>
      <trkpt lat="45.91255" lon="6.5036">
        <ele>2184.8</ele>
        <time>2012-01-29T09:00:53Z</time>
      </trkpt>
      <trkpt lat="45.91254" lon="6.50373">
        <ele>2187.8</ele>
        <time>2012-01-29T09:01:05Z</time>
      </trkpt>
      <trkpt lat="45.91252" lon="6.50385">
        <ele>2191.5</ele>
        <time>2012-01-29T09:01:17Z</time>
      </trkpt>
      <trkpt lat="45.91252" lon="6.50386">
        <ele>2191.8</ele>
        <time>2012-01-29T09:01:18Z</time>
      </trkpt>
      <trkpt lat="45.91242" lon="6.50397">
        <ele>2199</ele>
        <time>2012-01-29T09:01:58Z</time>
      </trkpt>
      <trkpt lat="45.91236" lon="6.50389">
        <ele>2201.6</ele>
        <time>2012-01-29T09:02:14Z</time>
      </trkpt>
      <trkpt lat="45.91229" lon="6.50396">
        <ele>2207.3</ele>
        <time>2012-01-29T09:02:42Z</time>
      </trkpt>
      <trkpt lat="45.91228" lon="6.50397">
        <ele>2207.8</ele>
        <time>2012-01-29T09:02:43Z</time>
      </trkpt>
      <trkpt lat="45.91214" lon="6.50404">
        <ele>2215.3</ele>
        <time>2012-01-29T09:03:28Z</time>
      </trkpt>
      <trkpt lat="45.91212" lon="6.50416">
        <ele>2217.8</ele>
        <time>2012-01-29T09:03:40Z</time>
      </trkpt>
      <trkpt lat="45.91209" lon="6.50428">
        <ele>2220.8</ele>
        <time>2012-01-29T09:03:53Z</time>
      </trkpt>
      <trkpt lat="45.91209" lon="6.50429">
        <ele>2221.1</ele>
        <time>2012-01-29T09:03:54Z</time>
      </trkpt>
      <trkpt lat="45.91205" lon="6.50452">
        <ele>2229.3</ele>
        <time>2012-01-29T09:04:23Z</time>
      </trkpt>
      <trkpt lat="45.91203" lon="6.50464">
        <ele>2233.6</ele>
        <time>2012-01-29T09:04:37Z</time>
      </trkpt>
      <trkpt lat="45.91202" lon="6.50476">
        <ele>2237.1</ele>
        <time>2012-01-29T09:05:12Z</time>
      </trkpt>
      <trkpt lat="45.91202" lon="6.50477">
        <ele>2237</ele>
        <time>2012-01-29T09:05:13Z</time>
      </trkpt>
      <trkpt lat="45.91208" lon="6.50486">
        <ele>2235.8</ele>
        <time>2012-01-29T09:07:00Z</time>
      </trkpt>
      <trkpt lat="45.91202" lon="6.50496">
        <ele>2242.1</ele>
        <time>2012-01-29T09:08:06Z</time>
      </trkpt>
      <trkpt lat="45.91199" lon="6.5052">
        <ele>2248.8</ele>
        <time>2012-01-29T09:08:33Z</time>
      </trkpt>
      <trkpt lat="45.91192" lon="6.50527">
        <ele>2253.6</ele>
        <time>2012-01-29T09:09:00Z</time>
      </trkpt>
      <trkpt lat="45.91184" lon="6.50523">
        <ele>2254.3</ele>
        <time>2012-01-29T09:09:14Z</time>
      </trkpt>
      <trkpt lat="45.91183" lon="6.50523">
        <ele>2254.6</ele>
        <time>2012-01-29T09:09:15Z</time>
      </trkpt>
      <trkpt lat="45.91171" lon="6.50527">
        <ele>2262</ele>
        <time>2012-01-29T09:09:55Z</time>
      </trkpt>
      <trkpt lat="45.91171" lon="6.5054">
        <ele>2265.1</ele>
        <time>2012-01-29T09:10:09Z</time>
      </trkpt>
      <trkpt lat="45.91173" lon="6.50552">
        <ele>2268.1</ele>
        <time>2012-01-29T09:10:21Z</time>
      </trkpt>
      <trkpt lat="45.91173" lon="6.50553">
        <ele>2268.3</ele>
        <time>2012-01-29T09:10:22Z</time>
      </trkpt>
      <trkpt lat="45.91157" lon="6.50547">
        <ele>2277.3</ele>
        <time>2012-01-29T09:11:06Z</time>
      </trkpt>
      <trkpt lat="45.91149" lon="6.50541">
        <ele>2280.6</ele>
        <time>2012-01-29T09:11:21Z</time>
      </trkpt>
      <trkpt lat="45.91147" lon="6.50552">
        <ele>2285.6</ele>
        <time>2012-01-29T09:11:41Z</time>
      </trkpt>
      <trkpt lat="45.91147" lon="6.50553">
        <ele>2285.8</ele>
        <time>2012-01-29T09:11:42Z</time>
      </trkpt>
      <trkpt lat="45.91149" lon="6.50577">
        <ele>2292.6</ele>
        <time>2012-01-29T09:12:09Z</time>
      </trkpt>
      <trkpt lat="45.91141" lon="6.5058">
        <ele>2298.6</ele>
        <time>2012-01-29T09:12:42Z</time>
      </trkpt>
      <trkpt lat="45.9114" lon="6.5058">
        <ele>2298.8</ele>
        <time>2012-01-29T09:12:43Z</time>
      </trkpt>
      <trkpt lat="45.91126" lon="6.50566">
        <ele>2304.6</ele>
        <time>2012-01-29T09:13:12Z</time>
      </trkpt>
      <trkpt lat="45.91123" lon="6.50577">
        <ele>2306.5</ele>
        <time>2012-01-29T09:13:36Z</time>
      </trkpt>
      <trkpt lat="45.91123" lon="6.5059">
        <ele>2307.5</ele>
        <time>2012-01-29T09:13:50Z</time>
      </trkpt>
      <trkpt lat="45.91123" lon="6.50591">
        <ele>2307.6</ele>
        <time>2012-01-29T09:13:51Z</time>
      </trkpt>
      <trkpt lat="45.91125" lon="6.50615">
        <ele>2315</ele>
        <time>2012-01-29T09:14:18Z</time>
      </trkpt>
      <trkpt lat="45.91126" lon="6.50627">
        <ele>2319.1</ele>
        <time>2012-01-29T09:14:31Z</time>
      </trkpt>
      <trkpt lat="45.91127" lon="6.5064">
        <ele>2322.8</ele>
        <time>2012-01-29T09:14:44Z</time>
      </trkpt>
      <trkpt lat="45.91119" lon="6.50638">
        <ele>2328.1</ele>
        <time>2012-01-29T09:15:05Z</time>
      </trkpt>
      <trkpt lat="45.91118" lon="6.50638">
        <ele>2328.6</ele>
        <time>2012-01-29T09:15:06Z</time>
      </trkpt>
      <trkpt lat="45.91102" lon="6.50633">
        <ele>2334.1</ele>
        <time>2012-01-29T09:15:38Z</time>
      </trkpt>
      <trkpt lat="45.91094" lon="6.50627">
        <ele>2337.8</ele>
        <time>2012-01-29T09:15:54Z</time>
      </trkpt>
      <trkpt lat="45.91087" lon="6.50621">
        <ele>2340.6</ele>
        <time>2012-01-29T09:16:08Z</time>
      </trkpt>
      <trkpt lat="45.91086" lon="6.50621">
        <ele>2340.8</ele>
        <time>2012-01-29T09:16:09Z</time>
      </trkpt>
      <trkpt lat="45.91076" lon="6.50603">
        <ele>2345</ele>
        <time>2012-01-29T09:16:35Z</time>
      </trkpt>
      <trkpt lat="45.91074" lon="6.5059">
        <ele>2347.8</ele>
        <time>2012-01-29T09:16:47Z</time>
      </trkpt>
      <trkpt lat="45.91072" lon="6.50579">
        <ele>2350.6</ele>
        <time>2012-01-29T09:16:58Z</time>
      </trkpt>
      <trkpt lat="45.9107" lon="6.50567">
        <ele>2351.6</ele>
        <time>2012-01-29T09:17:10Z</time>
      </trkpt>
      <trkpt lat="45.9107" lon="6.50566">
        <ele>2351.6</ele>
        <time>2012-01-29T09:17:11Z</time>
      </trkpt>
      <trkpt lat="45.91055" lon="6.50554">
        <ele>2354.1</ele>
        <time>2012-01-29T09:17:54Z</time>
      </trkpt>
      <trkpt lat="45.91052" lon="6.50543">
        <ele>2357.5</ele>
        <time>2012-01-29T09:18:07Z</time>
      </trkpt>
      <trkpt lat="45.91043" lon="6.50545">
        <ele>2361.8</ele>
        <time>2012-01-29T09:18:32Z</time>
      </trkpt>
      <trkpt lat="45.91042" lon="6.50546">
        <ele>2362.1</ele>
        <time>2012-01-29T09:18:33Z</time>
      </trkpt>
      <trkpt lat="45.91032" lon="6.50563">
        <ele>2372.3</ele>
        <time>2012-01-29T09:19:09Z</time>
      </trkpt>
      <trkpt lat="45.91029" lon="6.50576">
        <ele>2376.6</ele>
        <time>2012-01-29T09:19:23Z</time>
      </trkpt>
      <trkpt lat="45.91028" lon="6.50588">
        <ele>2380.1</ele>
        <time>2012-01-29T09:19:37Z</time>
      </trkpt>
      <trkpt lat="45.91028" lon="6.50589">
        <ele>2380.3</ele>
        <time>2012-01-29T09:19:38Z</time>
      </trkpt>
      <trkpt lat="45.91024" lon="6.50612">
        <ele>2386.3</ele>
        <time>2012-01-29T09:20:04Z</time>
      </trkpt>
      <trkpt lat="45.91022" lon="6.50624">
        <ele>2389.8</ele>
        <time>2012-01-29T09:20:20Z</time>
      </trkpt>
      <trkpt lat="45.91021" lon="6.50637">
        <ele>2393.1</ele>
        <time>2012-01-29T09:20:36Z</time>
      </trkpt>
      <trkpt lat="45.9102" lon="6.50649">
        <ele>2397.8</ele>
        <time>2012-01-29T09:20:52Z</time>
      </trkpt>
      <trkpt lat="45.9102" lon="6.50649">
        <ele>2398.1</ele>
        <time>2012-01-29T09:20:53Z</time>
      </trkpt>
      <trkpt lat="45.91012" lon="6.50668">
        <ele>2402</ele>
        <time>2012-01-29T09:21:36Z</time>
      </trkpt>
      <trkpt lat="45.91004" lon="6.50668">
        <ele>2402.8</ele>
        <time>2012-01-29T09:21:52Z</time>
      </trkpt>
      <trkpt lat="45.90996" lon="6.50664">
        <ele>2404.1</ele>
        <time>2012-01-29T09:22:06Z</time>
      </trkpt>
      <trkpt lat="45.90995" lon="6.50664">
        <ele>2404.3</ele>
        <time>2012-01-29T09:22:07Z</time>
      </trkpt>
      <trkpt lat="45.90989" lon="6.50685">
        <ele>2412.1</ele>
        <time>2012-01-29T09:23:08Z</time>
      </trkpt>
      <trkpt lat="45.90989" lon="6.50686">
        <ele>2412.8</ele>
        <time>2012-01-29T09:23:09Z</time>
      </trkpt>
      <trkpt lat="45.90983" lon="6.50701">
        <ele>2426.8</ele>
        <time>2012-01-29T09:23:48Z</time>
      </trkpt>
      <trkpt lat="45.90975" lon="6.50695">
        <ele>2428.8</ele>
        <time>2012-01-29T09:24:07Z</time>
      </trkpt>
      <trkpt lat="45.90972" lon="6.50706">
        <ele>2433.3</ele>
        <time>2012-01-29T09:24:32Z</time>
      </trkpt>
      <trkpt lat="45.90972" lon="6.50707">
        <ele>2433.6</ele>
        <time>2012-01-29T09:24:33Z</time>
      </trkpt>
      <trkpt lat="45.90967" lon="6.50729">
        <ele>2437.6</ele>
        <time>2012-01-29T09:25:21Z</time>
      </trkpt>
      <trkpt lat="45.90967" lon="6.50741">
        <ele>2438.8</ele>
        <time>2012-01-29T09:25:36Z</time>
      </trkpt>
      <trkpt lat="45.90968" lon="6.50742">
        <ele>2439.3</ele>
        <time>2012-01-29T09:25:37Z</time>
      </trkpt>
      <trkpt lat="45.90977" lon="6.50762">
        <ele>2446.1</ele>
        <time>2012-01-29T09:26:05Z</time>
      </trkpt>
      <trkpt lat="45.90976" lon="6.50775">
        <ele>2449.1</ele>
        <time>2012-01-29T09:26:21Z</time>
      </trkpt>
      <trkpt lat="45.90976" lon="6.50787">
        <ele>2448.3</ele>
        <time>2012-01-29T09:27:05Z</time>
      </trkpt>
      <trkpt lat="45.90976" lon="6.50788">
        <ele>2448.5</ele>
        <time>2012-01-29T09:27:06Z</time>
      </trkpt>
      <trkpt lat="45.90976" lon="6.50812">
        <ele>2459.6</ele>
        <time>2012-01-29T09:27:35Z</time>
      </trkpt>
      <trkpt lat="45.90975" lon="6.50825">
        <ele>2465</ele>
        <time>2012-01-29T09:27:51Z</time>
      </trkpt>
      <trkpt lat="45.90967" lon="6.50824">
        <ele>2472.3</ele>
        <time>2012-01-29T09:28:26Z</time>
      </trkpt>
      <trkpt lat="45.90966" lon="6.50823">
        <ele>2472.6</ele>
        <time>2012-01-29T09:28:27Z</time>
      </trkpt>
      <trkpt lat="45.90952" lon="6.5081">
        <ele>2476.1</ele>
        <time>2012-01-29T09:28:55Z</time>
      </trkpt>
      <trkpt lat="45.90945" lon="6.50802">
        <ele>2478.3</ele>
        <time>2012-01-29T09:29:08Z</time>
      </trkpt>
      <trkpt lat="45.90938" lon="6.50795">
        <ele>2480.6</ele>
        <time>2012-01-29T09:29:21Z</time>
      </trkpt>
      <trkpt lat="45.90933" lon="6.50806">
        <ele>2488.6</ele>
        <time>2012-01-29T09:29:59Z</time>
      </trkpt>
      <trkpt lat="45.90933" lon="6.50807">
        <ele>2488.8</ele>
        <time>2012-01-29T09:30:00Z</time>
      </trkpt>
      <trkpt lat="45.90925" lon="6.50818">
        <ele>2493.8</ele>
        <time>2012-01-29T09:30:53Z</time>
      </trkpt>
      <trkpt lat="45.90923" lon="6.5083">
        <ele>2497.6</ele>
        <time>2012-01-29T09:31:37Z</time>
      </trkpt>
      <trkpt lat="45.90923" lon="6.50831">
        <ele>2498.1</ele>
        <time>2012-01-29T09:31:38Z</time>
      </trkpt>
      <trkpt lat="45.90906" lon="6.50831">
        <ele>2507.1</ele>
        <time>2012-01-29T09:33:22Z</time>
      </trkpt>
      <trkpt lat="45.90906" lon="6.50831">
        <ele>2507.1</ele>
        <time>2012-01-29T09:33:23Z</time>
      </trkpt>
      <trkpt lat="45.90916" lon="6.50839">
        <ele>2494.5</ele>
        <time>2012-01-29T09:51:16Z</time>
      </trkpt>
      <trkpt lat="45.90928" lon="6.50831">
        <ele>2483</ele>
        <time>2012-01-29T09:51:26Z</time>
      </trkpt>
      <trkpt lat="45.90934" lon="6.50826">
        <ele>2476.5</ele>
        <time>2012-01-29T09:51:29Z</time>
      </trkpt>
      <trkpt lat="45.90941" lon="6.50824">
        <ele>2467.8</ele>
        <time>2012-01-29T09:51:32Z</time>
      </trkpt>
      <trkpt lat="45.90948" lon="6.50816">
        <ele>2456.8</ele>
        <time>2012-01-29T09:51:37Z</time>
      </trkpt>
      <trkpt lat="45.90948" lon="6.50804">
        <ele>2451.5</ele>
        <time>2012-01-29T09:51:56Z</time>
      </trkpt>
      <trkpt lat="45.90951" lon="6.50792">
        <ele>2446.6</ele>
        <time>2012-01-29T09:52:01Z</time>
      </trkpt>
      <trkpt lat="45.90949" lon="6.50781">
        <ele>2442.5</ele>
        <time>2012-01-29T09:52:04Z</time>
      </trkpt>
      <trkpt lat="45.90953" lon="6.50771">
        <ele>2437.6</ele>
        <time>2012-01-29T09:52:07Z</time>
      </trkpt>
      <trkpt lat="45.90957" lon="6.5076">
        <ele>2433.1</ele>
        <time>2012-01-29T09:52:10Z</time>
      </trkpt>
      <trkpt lat="45.9096" lon="6.50751">
        <ele>2429.5</ele>
        <time>2012-01-29T09:52:13Z</time>
      </trkpt>
      <trkpt lat="45.9096" lon="6.50738">
        <ele>2426.5</ele>
        <time>2012-01-29T09:52:23Z</time>
      </trkpt>
      <trkpt lat="45.9096" lon="6.50737">
        <ele>2426.6</ele>
        <time>2012-01-29T09:52:24Z</time>
      </trkpt>
      <trkpt lat="45.9097" lon="6.50724">
        <ele>2417.1</ele>
        <time>2012-01-29T09:52:40Z</time>
      </trkpt>
      <trkpt lat="45.90977" lon="6.50715">
        <ele>2408.1</ele>
        <time>2012-01-29T09:52:45Z</time>
      </trkpt>
      <trkpt lat="45.90976" lon="6.50702">
        <ele>2403</ele>
        <time>2012-01-29T09:53:00Z</time>
      </trkpt>
      <trkpt lat="45.90983" lon="6.50699">
        <ele>2402.3</ele>
        <time>2012-01-29T09:53:07Z</time>
      </trkpt>
      <trkpt lat="45.9099" lon="6.50694">
        <ele>2400.1</ele>
        <time>2012-01-29T09:53:10Z</time>
      </trkpt>
      <trkpt lat="45.90996" lon="6.50686">
        <ele>2396.8</ele>
        <time>2012-01-29T09:53:13Z</time>
      </trkpt>
      <trkpt lat="45.90996" lon="6.50675">
        <ele>2393.1</ele>
        <time>2012-01-29T09:53:17Z</time>
      </trkpt>
      <trkpt lat="45.90998" lon="6.50664">
        <ele>2387.3</ele>
        <time>2012-01-29T09:53:21Z</time>
      </trkpt>
      <trkpt lat="45.91003" lon="6.50658">
        <ele>2381.1</ele>
        <time>2012-01-29T09:53:25Z</time>
      </trkpt>
      <trkpt lat="45.91004" lon="6.50654">
        <ele>2379.3</ele>
        <time>2012-01-29T09:53:26Z</time>
      </trkpt>
      <trkpt lat="45.91013" lon="6.5064">
        <ele>2371.8</ele>
        <time>2012-01-29T09:53:31Z</time>
      </trkpt>
      <trkpt lat="45.91021" lon="6.50636">
        <ele>2364.6</ele>
        <time>2012-01-29T09:53:58Z</time>
      </trkpt>
      <trkpt lat="45.91025" lon="6.50626">
        <ele>2367.5</ele>
        <time>2012-01-29T09:55:39Z</time>
      </trkpt>
      <trkpt lat="45.91026" lon="6.50624">
        <ele>2366.8</ele>
        <time>2012-01-29T09:55:40Z</time>
      </trkpt>
      <trkpt lat="45.9104" lon="6.50618">
        <ele>2358.6</ele>
        <time>2012-01-29T09:55:47Z</time>
      </trkpt>
      <trkpt lat="45.91048" lon="6.50618">
        <ele>2351.8</ele>
        <time>2012-01-29T09:55:50Z</time>
      </trkpt>
      <trkpt lat="45.91056" lon="6.5062">
        <ele>2345.6</ele>
        <time>2012-01-29T09:55:53Z</time>
      </trkpt>
      <trkpt lat="45.91064" lon="6.50616">
        <ele>2340.3</ele>
        <time>2012-01-29T09:55:56Z</time>
      </trkpt>
      <trkpt lat="45.91071" lon="6.50622">
        <ele>2337.3</ele>
        <time>2012-01-29T09:55:58Z</time>
      </trkpt>
      <trkpt lat="45.91076" lon="6.50629">
        <ele>2335.3</ele>
        <time>2012-01-29T09:56:00Z</time>
      </trkpt>
      <trkpt lat="45.91081" lon="6.50634">
        <ele>2333.1</ele>
        <time>2012-01-29T09:56:02Z</time>
      </trkpt>
      <trkpt lat="45.91086" lon="6.50631">
        <ele>2330.1</ele>
        <time>2012-01-29T09:56:04Z</time>
      </trkpt>
      <trkpt lat="45.91093" lon="6.50629">
        <ele>2326.6</ele>
        <time>2012-01-29T09:56:06Z</time>
      </trkpt>
      <trkpt lat="45.911" lon="6.50621">
        <ele>2318.1</ele>
        <time>2012-01-29T09:56:10Z</time>
      </trkpt>
      <trkpt lat="45.91104" lon="6.5061">
        <ele>2313.1</ele>
        <time>2012-01-29T09:56:34Z</time>
      </trkpt>
      <trkpt lat="45.9111" lon="6.50604">
        <ele>2310.1</ele>
        <time>2012-01-29T09:56:37Z</time>
      </trkpt>
      <trkpt lat="45.91117" lon="6.50598">
        <ele>2304.6</ele>
        <time>2012-01-29T09:56:40Z</time>
      </trkpt>
      <trkpt lat="45.91118" lon="6.50596">
        <ele>2302.5</ele>
        <time>2012-01-29T09:56:41Z</time>
      </trkpt>
      <trkpt lat="45.91128" lon="6.50582">
        <ele>2289</ele>
        <time>2012-01-29T09:56:48Z</time>
      </trkpt>
      <trkpt lat="45.91131" lon="6.50573">
        <ele>2284.1</ele>
        <time>2012-01-29T09:56:51Z</time>
      </trkpt>
      <trkpt lat="45.91137" lon="6.50567">
        <ele>2279.1</ele>
        <time>2012-01-29T09:56:54Z</time>
      </trkpt>
      <trkpt lat="45.91145" lon="6.50562">
        <ele>2272.8</ele>
        <time>2012-01-29T09:56:58Z</time>
      </trkpt>
      <trkpt lat="45.91151" lon="6.50554">
        <ele>2267.8</ele>
        <time>2012-01-29T09:57:01Z</time>
      </trkpt>
      <trkpt lat="45.91157" lon="6.50548">
        <ele>2262.1</ele>
        <time>2012-01-29T09:57:04Z</time>
      </trkpt>
      <trkpt lat="45.91166" lon="6.50551">
        <ele>2257</ele>
        <time>2012-01-29T09:57:08Z</time>
      </trkpt>
      <trkpt lat="45.91174" lon="6.50549">
        <ele>2257.3</ele>
        <time>2012-01-29T09:57:29Z</time>
      </trkpt>
      <trkpt lat="45.91181" lon="6.50542">
        <ele>2254.5</ele>
        <time>2012-01-29T09:57:33Z</time>
      </trkpt>
      <trkpt lat="45.91189" lon="6.50538">
        <ele>2250.5</ele>
        <time>2012-01-29T09:57:36Z</time>
      </trkpt>
      <trkpt lat="45.91195" lon="6.50534">
        <ele>2247.8</ele>
        <time>2012-01-29T09:57:38Z</time>
      </trkpt>
      <trkpt lat="45.91201" lon="6.50531">
        <ele>2245</ele>
        <time>2012-01-29T09:57:40Z</time>
      </trkpt>
      <trkpt lat="45.91209" lon="6.50527">
        <ele>2242.3</ele>
        <time>2012-01-29T09:57:42Z</time>
      </trkpt>
      <trkpt lat="45.91213" lon="6.50526">
        <ele>2241.1</ele>
        <time>2012-01-29T09:57:43Z</time>
      </trkpt>
      <trkpt lat="45.91224" lon="6.5052">
        <ele>2237.3</ele>
        <time>2012-01-29T09:57:46Z</time>
      </trkpt>
      <trkpt lat="45.91231" lon="6.50515">
        <ele>2234.6</ele>
        <time>2012-01-29T09:57:48Z</time>
      </trkpt>
      <trkpt lat="45.91234" lon="6.50505">
        <ele>2230.3</ele>
        <time>2012-01-29T09:57:51Z</time>
      </trkpt>
      <trkpt lat="45.91233" lon="6.50493">
        <ele>2218.6</ele>
        <time>2012-01-29T09:58:13Z</time>
      </trkpt>
      <trkpt lat="45.91233" lon="6.50482">
        <ele>2215.6</ele>
        <time>2012-01-29T09:58:18Z</time>
      </trkpt>
      <trkpt lat="45.91237" lon="6.50471">
        <ele>2211.8</ele>
        <time>2012-01-29T09:58:21Z</time>
      </trkpt>
      <trkpt lat="45.91242" lon="6.50466">
        <ele>2207.1</ele>
        <time>2012-01-29T09:58:23Z</time>
      </trkpt>
      <trkpt lat="45.91247" lon="6.5046">
        <ele>2201.6</ele>
        <time>2012-01-29T09:58:25Z</time>
      </trkpt>
      <trkpt lat="45.91254" lon="6.50454">
        <ele>2195.3</ele>
        <time>2012-01-29T09:58:27Z</time>
      </trkpt>
      <trkpt lat="45.9126" lon="6.5045">
        <ele>2189.1</ele>
        <time>2012-01-29T09:58:29Z</time>
      </trkpt>
      <trkpt lat="45.91267" lon="6.50444">
        <ele>2183.1</ele>
        <time>2012-01-29T09:58:31Z</time>
      </trkpt>
      <trkpt lat="45.91274" lon="6.50451">
        <ele>2169.8</ele>
        <time>2012-01-29T09:58:54Z</time>
      </trkpt>
      <trkpt lat="45.91275" lon="6.50451">
        <ele>2170.5</ele>
        <time>2012-01-29T09:58:55Z</time>
      </trkpt>
      <trkpt lat="45.91287" lon="6.50437">
        <ele>2171.8</ele>
        <time>2012-01-29T09:59:02Z</time>
      </trkpt>
      <trkpt lat="45.9129" lon="6.50427">
        <ele>2169.8</ele>
        <time>2012-01-29T09:59:05Z</time>
      </trkpt>
      <trkpt lat="45.91294" lon="6.5042">
        <ele>2166.6</ele>
        <time>2012-01-29T09:59:07Z</time>
      </trkpt>
      <trkpt lat="45.913" lon="6.50411">
        <ele>2162.3</ele>
        <time>2012-01-29T09:59:10Z</time>
      </trkpt>
      <trkpt lat="45.91307" lon="6.50405">
        <ele>2157.6</ele>
        <time>2012-01-29T09:59:13Z</time>
      </trkpt>
      <trkpt lat="45.91312" lon="6.504">
        <ele>2154.3</ele>
        <time>2012-01-29T09:59:15Z</time>
      </trkpt>
      <trkpt lat="45.91315" lon="6.50389">
        <ele>2151.8</ele>
        <time>2012-01-29T09:59:18Z</time>
      </trkpt>
      <trkpt lat="45.91317" lon="6.50377">
        <ele>2149.8</ele>
        <time>2012-01-29T09:59:33Z</time>
      </trkpt>
      <trkpt lat="45.91323" lon="6.50369">
        <ele>2151.6</ele>
        <time>2012-01-29T09:59:43Z</time>
      </trkpt>
      <trkpt lat="45.9133" lon="6.50364">
        <ele>2148.6</ele>
        <time>2012-01-29T09:59:46Z</time>
      </trkpt>
      <trkpt lat="45.91335" lon="6.50361">
        <ele>2144.6</ele>
        <time>2012-01-29T09:59:48Z</time>
      </trkpt>
      <trkpt lat="45.91342" lon="6.50357">
        <ele>2140.3</ele>
        <time>2012-01-29T09:59:50Z</time>
      </trkpt>
      <trkpt lat="45.91347" lon="6.50351">
        <ele>2136.3</ele>
        <time>2012-01-29T09:59:52Z</time>
      </trkpt>
      <trkpt lat="45.91354" lon="6.50348">
        <ele>2132.8</ele>
        <time>2012-01-29T09:59:54Z</time>
      </trkpt>
      <trkpt lat="45.91361" lon="6.50346">
        <ele>2130.5</ele>
        <time>2012-01-29T09:59:56Z</time>
      </trkpt>
      <trkpt lat="45.91364" lon="6.50343">
        <ele>2129.6</ele>
        <time>2012-01-29T09:59:57Z</time>
      </trkpt>
      <trkpt lat="45.91369" lon="6.50326">
        <ele>2126.5</ele>
        <time>2012-01-29T10:00:04Z</time>
      </trkpt>
      <trkpt lat="45.91368" lon="6.50313">
        <ele>2123.1</ele>
        <time>2012-01-29T10:00:18Z</time>
      </trkpt>
      <trkpt lat="45.91371" lon="6.50302">
        <ele>2122.3</ele>
        <time>2012-01-29T10:00:36Z</time>
      </trkpt>
      <trkpt lat="45.91379" lon="6.50302">
        <ele>2119.8</ele>
        <time>2012-01-29T10:00:41Z</time>
      </trkpt>
      <trkpt lat="45.91384" lon="6.50302">
        <ele>2118.6</ele>
        <time>2012-01-29T10:00:43Z</time>
      </trkpt>
      <trkpt lat="45.91393" lon="6.50304">
        <ele>2115.3</ele>
        <time>2012-01-29T10:00:46Z</time>
      </trkpt>
      <trkpt lat="45.91399" lon="6.50304">
        <ele>2112.8</ele>
        <time>2012-01-29T10:00:48Z</time>
      </trkpt>
      <trkpt lat="45.91408" lon="6.50304">
        <ele>2107.5</ele>
        <time>2012-01-29T10:00:51Z</time>
      </trkpt>
      <trkpt lat="45.91416" lon="6.50302">
        <ele>2102.6</ele>
        <time>2012-01-29T10:00:53Z</time>
      </trkpt>
      <trkpt lat="45.91422" lon="6.50312">
        <ele>2093.6</ele>
        <time>2012-01-29T10:01:03Z</time>
      </trkpt>
      <trkpt lat="45.91422" lon="6.50312">
        <ele>2093.5</ele>
        <time>2012-01-29T10:01:04Z</time>
      </trkpt>
      <trkpt lat="45.91437" lon="6.50303">
        <ele>2074.1</ele>
        <time>2012-01-29T10:01:41Z</time>
      </trkpt>
      <trkpt lat="45.91443" lon="6.50296">
        <ele>2071.1</ele>
        <time>2012-01-29T10:01:43Z</time>
      </trkpt>
      <trkpt lat="45.91449" lon="6.50291">
        <ele>2068.3</ele>
        <time>2012-01-29T10:01:45Z</time>
      </trkpt>
      <trkpt lat="45.91456" lon="6.50285">
        <ele>2064.3</ele>
        <time>2012-01-29T10:01:47Z</time>
      </trkpt>
      <trkpt lat="45.9146" lon="6.50279">
        <ele>2062</ele>
        <time>2012-01-29T10:01:48Z</time>
      </trkpt>
      <trkpt lat="45.91465" lon="6.50273">
        <ele>2059.5</ele>
        <time>2012-01-29T10:01:49Z</time>
      </trkpt>
      <trkpt lat="45.91466" lon="6.50265">
        <ele>2057.1</ele>
        <time>2012-01-29T10:01:50Z</time>
      </trkpt>
      <trkpt lat="45.91468" lon="6.50257">
        <ele>2054.6</ele>
        <time>2012-01-29T10:01:51Z</time>
      </trkpt>
      <trkpt lat="45.91473" lon="6.50254">
        <ele>2053</ele>
        <time>2012-01-29T10:01:52Z</time>
      </trkpt>
      <trkpt lat="45.91478" lon="6.50249">
        <ele>2050.5</ele>
        <time>2012-01-29T10:01:53Z</time>
      </trkpt>
      <trkpt lat="45.91485" lon="6.50246">
        <ele>2048.1</ele>
        <time>2012-01-29T10:01:54Z</time>
      </trkpt>
      <trkpt lat="45.91489" lon="6.50242">
        <ele>2045.3</ele>
        <time>2012-01-29T10:01:55Z</time>
      </trkpt>
      <trkpt lat="45.91492" lon="6.50235">
        <ele>2041.5</ele>
        <time>2012-01-29T10:01:56Z</time>
      </trkpt>
      <trkpt lat="45.91496" lon="6.50226">
        <ele>2035.8</ele>
        <time>2012-01-29T10:01:58Z</time>
      </trkpt>
      <trkpt lat="45.91501" lon="6.50216">
        <ele>2029.9</ele>
        <time>2012-01-29T10:02:01Z</time>
      </trkpt>
      <trkpt lat="45.91506" lon="6.50208">
        <ele>2027</ele>
        <time>2012-01-29T10:02:03Z</time>
      </trkpt>
      <trkpt lat="45.91512" lon="6.50201">
        <ele>2024.9</ele>
        <time>2012-01-29T10:02:05Z</time>
      </trkpt>
      <trkpt lat="45.91516" lon="6.50196">
        <ele>2024.1</ele>
        <time>2012-01-29T10:02:06Z</time>
      </trkpt>
      <trkpt lat="45.9152" lon="6.50191">
        <ele>2023.9</ele>
        <time>2012-01-29T10:02:07Z</time>
      </trkpt>
      <trkpt lat="45.91524" lon="6.50187">
        <ele>2023.4</ele>
        <time>2012-01-29T10:02:08Z</time>
      </trkpt>
      <trkpt lat="45.91528" lon="6.50182">
        <ele>2022.6</ele>
        <time>2012-01-29T10:02:09Z</time>
      </trkpt>
      <trkpt lat="45.91533" lon="6.50172">
        <ele>2021.1</ele>
        <time>2012-01-29T10:02:11Z</time>
      </trkpt>
      <trkpt lat="45.9153" lon="6.50161">
        <ele>2019.6</ele>
        <time>2012-01-29T10:02:13Z</time>
      </trkpt>
      <trkpt lat="45.91528" lon="6.50155">
        <ele>2018.6</ele>
        <time>2012-01-29T10:02:14Z</time>
      </trkpt>
      <trkpt lat="45.91528" lon="6.50148">
        <ele>2017.1</ele>
        <time>2012-01-29T10:02:15Z</time>
      </trkpt>
      <trkpt lat="45.91523" lon="6.50137">
        <ele>2013.3</ele>
        <time>2012-01-29T10:02:18Z</time>
      </trkpt>
      <trkpt lat="45.91526" lon="6.50126">
        <ele>2008</ele>
        <time>2012-01-29T10:02:25Z</time>
      </trkpt>
      <trkpt lat="45.91529" lon="6.50116">
        <ele>2006.8</ele>
        <time>2012-01-29T10:02:27Z</time>
      </trkpt>
      <trkpt lat="45.91534" lon="6.50106">
        <ele>2008</ele>
        <time>2012-01-29T10:02:38Z</time>
      </trkpt>
      <trkpt lat="45.9153" lon="6.50097">
        <ele>2005.1</ele>
        <time>2012-01-29T10:02:52Z</time>
      </trkpt>
      <trkpt lat="45.91529" lon="6.50088">
        <ele>2005.5</ele>
        <time>2012-01-29T10:02:54Z</time>
      </trkpt>
      <trkpt lat="45.91535" lon="6.50079">
        <ele>2005.3</ele>
        <time>2012-01-29T10:02:56Z</time>
      </trkpt>
      <trkpt lat="45.91539" lon="6.50075">
        <ele>2004.8</ele>
        <time>2012-01-29T10:02:57Z</time>
      </trkpt>
      <trkpt lat="45.91543" lon="6.50071">
        <ele>2003.9</ele>
        <time>2012-01-29T10:02:58Z</time>
      </trkpt>
      <trkpt lat="45.91547" lon="6.50067">
        <ele>2002.5</ele>
        <time>2012-01-29T10:02:59Z</time>
      </trkpt>
      <trkpt lat="45.91551" lon="6.50062">
        <ele>2001.1</ele>
        <time>2012-01-29T10:03:00Z</time>
      </trkpt>
      <trkpt lat="45.91555" lon="6.50058">
        <ele>1999.8</ele>
        <time>2012-01-29T10:03:01Z</time>
      </trkpt>
      <trkpt lat="45.91559" lon="6.50054">
        <ele>1998</ele>
        <time>2012-01-29T10:03:02Z</time>
      </trkpt>
      <trkpt lat="45.91566" lon="6.50048">
        <ele>1994.4</ele>
        <time>2012-01-29T10:03:04Z</time>
      </trkpt>
      <trkpt lat="45.91572" lon="6.50044">
        <ele>1990.9</ele>
        <time>2012-01-29T10:03:06Z</time>
      </trkpt>
      <trkpt lat="45.91574" lon="6.50038">
        <ele>1988.9</ele>
        <time>2012-01-29T10:03:07Z</time>
      </trkpt>
      <trkpt lat="45.91575" lon="6.50031">
        <ele>1987</ele>
        <time>2012-01-29T10:03:08Z</time>
      </trkpt>
      <trkpt lat="45.91576" lon="6.50018">
        <ele>1984.8</ele>
        <time>2012-01-29T10:03:11Z</time>
      </trkpt>
      <trkpt lat="45.91583" lon="6.50011">
        <ele>1982</ele>
        <time>2012-01-29T10:03:15Z</time>
      </trkpt>
      <trkpt lat="45.91584" lon="6.50022">
        <ele>1964.6</ele>
        <time>2012-01-29T10:03:45Z</time>
      </trkpt>
      <trkpt lat="45.91593" lon="6.50025">
        <ele>1965.3</ele>
        <time>2012-01-29T10:03:48Z</time>
      </trkpt>
      <trkpt lat="45.91598" lon="6.50027">
        <ele>1964.9</ele>
        <time>2012-01-29T10:03:50Z</time>
      </trkpt>
      <trkpt lat="45.91607" lon="6.50031">
        <ele>1963.8</ele>
        <time>2012-01-29T10:03:53Z</time>
      </trkpt>
      <trkpt lat="45.91608" lon="6.50021">
        <ele>1961.5</ele>
        <time>2012-01-29T10:03:58Z</time>
      </trkpt>
      <trkpt lat="45.91617" lon="6.50018">
        <ele>1959.6</ele>
        <time>2012-01-29T10:04:00Z</time>
      </trkpt>
      <trkpt lat="45.91625" lon="6.50014">
        <ele>1956.4</ele>
        <time>2012-01-29T10:04:02Z</time>
      </trkpt>
      <trkpt lat="45.91626" lon="6.50009">
        <ele>1954.9</ele>
        <time>2012-01-29T10:04:03Z</time>
      </trkpt>
      <trkpt lat="45.91628" lon="6.50002">
        <ele>1953</ele>
        <time>2012-01-29T10:04:04Z</time>
      </trkpt>
      <trkpt lat="45.91632" lon="6.49996">
        <ele>1950.9</ele>
        <time>2012-01-29T10:04:05Z</time>
      </trkpt>
      <trkpt lat="45.91635" lon="6.4999">
        <ele>1947.8</ele>
        <time>2012-01-29T10:04:06Z</time>
      </trkpt>
      <trkpt lat="45.9164" lon="6.49984">
        <ele>1944.5</ele>
        <time>2012-01-29T10:04:07Z</time>
      </trkpt>
      <trkpt lat="45.91644" lon="6.49975">
        <ele>1941.3</ele>
        <time>2012-01-29T10:04:08Z</time>
      </trkpt>
      <trkpt lat="45.9165" lon="6.49968">
        <ele>1938</ele>
        <time>2012-01-29T10:04:09Z</time>
      </trkpt>
      <trkpt lat="45.91656" lon="6.49959">
        <ele>1934.5</ele>
        <time>2012-01-29T10:04:10Z</time>
      </trkpt>
      <trkpt lat="45.91661" lon="6.4995">
        <ele>1931.3</ele>
        <time>2012-01-29T10:04:11Z</time>
      </trkpt>
      <trkpt lat="45.91668" lon="6.49942">
        <ele>1927.9</ele>
        <time>2012-01-29T10:04:12Z</time>
      </trkpt>
      <trkpt lat="45.91674" lon="6.49931">
        <ele>1924.1</ele>
        <time>2012-01-29T10:04:13Z</time>
      </trkpt>
      <trkpt lat="45.91679" lon="6.4992">
        <ele>1920.9</ele>
        <time>2012-01-29T10:04:14Z</time>
      </trkpt>
      <trkpt lat="45.91688" lon="6.49918">
        <ele>1917.1</ele>
        <time>2012-01-29T10:04:18Z</time>
      </trkpt>
      <trkpt lat="45.91693" lon="6.49912">
        <ele>1892.5</ele>
        <time>2012-01-29T10:04:38Z</time>
      </trkpt>
      <trkpt lat="45.91698" lon="6.49903">
        <ele>1890.3</ele>
        <time>2012-01-29T10:04:41Z</time>
      </trkpt>
      <trkpt lat="45.91695" lon="6.49891">
        <ele>1888.5</ele>
        <time>2012-01-29T10:04:45Z</time>
      </trkpt>
      <trkpt lat="45.91693" lon="6.49879">
        <ele>1887.5</ele>
        <time>2012-01-29T10:04:54Z</time>
      </trkpt>
      <trkpt lat="45.91689" lon="6.49868">
        <ele>1887.5</ele>
        <time>2012-01-29T10:05:07Z</time>
      </trkpt>
      <trkpt lat="45.91696" lon="6.4986">
        <ele>1891</ele>
        <time>2012-01-29T10:05:16Z</time>
      </trkpt>
      <trkpt lat="45.91698" lon="6.49856">
        <ele>1891.1</ele>
        <time>2012-01-29T10:05:17Z</time>
      </trkpt>
      <trkpt lat="45.91705" lon="6.49839">
        <ele>1887.5</ele>
        <time>2012-01-29T10:05:22Z</time>
      </trkpt>
      <trkpt lat="45.91713" lon="6.49833">
        <ele>1881.4</ele>
        <time>2012-01-29T10:05:25Z</time>
      </trkpt>
      <trkpt lat="45.91721" lon="6.49831">
        <ele>1875.9</ele>
        <time>2012-01-29T10:05:27Z</time>
      </trkpt>
      <trkpt lat="45.91729" lon="6.49831">
        <ele>1871.3</ele>
        <time>2012-01-29T10:05:29Z</time>
      </trkpt>
      <trkpt lat="45.91735" lon="6.49826">
        <ele>1867</ele>
        <time>2012-01-29T10:05:31Z</time>
      </trkpt>
      <trkpt lat="45.9174" lon="6.49819">
        <ele>1862.6</ele>
        <time>2012-01-29T10:05:33Z</time>
      </trkpt>
      <trkpt lat="45.91748" lon="6.49816">
        <ele>1858</ele>
        <time>2012-01-29T10:05:35Z</time>
      </trkpt>
      <trkpt lat="45.91754" lon="6.49808">
        <ele>1852.4</ele>
        <time>2012-01-29T10:05:37Z</time>
      </trkpt>
      <trkpt lat="45.91751" lon="6.49796">
        <ele>1840.9</ele>
        <time>2012-01-29T10:05:47Z</time>
      </trkpt>
      <trkpt lat="45.91744" lon="6.49793">
        <ele>1825</ele>
        <time>2012-01-29T10:05:57Z</time>
      </trkpt>
      <trkpt lat="45.91737" lon="6.49787">
        <ele>1823.5</ele>
        <time>2012-01-29T10:06:01Z</time>
      </trkpt>
      <trkpt lat="45.91733" lon="6.4978">
        <ele>1824.5</ele>
        <time>2012-01-29T10:06:03Z</time>
      </trkpt>
      <trkpt lat="45.91729" lon="6.49772">
        <ele>1825.5</ele>
        <time>2012-01-29T10:06:05Z</time>
      </trkpt>
      <trkpt lat="45.91724" lon="6.49765">
        <ele>1827.3</ele>
        <time>2012-01-29T10:06:09Z</time>
      </trkpt>
      <trkpt lat="45.9172" lon="6.49759">
        <ele>1827.8</ele>
        <time>2012-01-29T10:06:11Z</time>
      </trkpt>
      <trkpt lat="45.91717" lon="6.49747">
        <ele>1829.3</ele>
        <time>2012-01-29T10:06:15Z</time>
      </trkpt>
      <trkpt lat="45.91714" lon="6.49735">
        <ele>1832</ele>
        <time>2012-01-29T10:06:24Z</time>
      </trkpt>
      <trkpt lat="45.91714" lon="6.49734">
        <ele>1832.6</ele>
        <time>2012-01-29T10:06:25Z</time>
      </trkpt>
      <trkpt lat="45.91714" lon="6.49712">
        <ele>1839</ele>
        <time>2012-01-29T10:06:35Z</time>
      </trkpt>
      <trkpt lat="45.91721" lon="6.49707">
        <ele>1838.9</ele>
        <time>2012-01-29T10:06:38Z</time>
      </trkpt>
      <trkpt lat="45.91721" lon="6.49695">
        <ele>1837</ele>
        <time>2012-01-29T10:06:42Z</time>
      </trkpt>
      <trkpt lat="45.91722" lon="6.49682">
        <ele>1836</ele>
        <time>2012-01-29T10:06:45Z</time>
      </trkpt>
      <trkpt lat="45.91726" lon="6.49681">
        <ele>1834.1</ele>
        <time>2012-01-29T10:06:47Z</time>
      </trkpt>
      <trkpt lat="45.91733" lon="6.49677">
        <ele>1829.5</ele>
        <time>2012-01-29T10:06:50Z</time>
      </trkpt>
      <trkpt lat="45.9174" lon="6.49676">
        <ele>1813</ele>
        <time>2012-01-29T10:06:55Z</time>
      </trkpt>
      <trkpt lat="45.91748" lon="6.49675">
        <ele>1800.5</ele>
        <time>2012-01-29T10:07:05Z</time>
      </trkpt>
      <trkpt lat="45.91753" lon="6.49665">
        <ele>1804.6</ele>
        <time>2012-01-29T10:07:15Z</time>
      </trkpt>
      <trkpt lat="45.91756" lon="6.49654">
        <ele>1810.1</ele>
        <time>2012-01-29T10:07:37Z</time>
      </trkpt>
      <trkpt lat="45.91758" lon="6.49653">
        <ele>1810.1</ele>
        <time>2012-01-29T10:07:38Z</time>
      </trkpt>
      <trkpt lat="45.91768" lon="6.49666">
        <ele>1807.5</ele>
        <time>2012-01-29T10:07:45Z</time>
      </trkpt>
      <trkpt lat="45.91775" lon="6.49672">
        <ele>1807.8</ele>
        <time>2012-01-29T10:07:49Z</time>
      </trkpt>
      <trkpt lat="45.91782" lon="6.49681">
        <ele>1799.4</ele>
        <time>2012-01-29T10:07:57Z</time>
      </trkpt>
      <trkpt lat="45.91789" lon="6.49688">
        <ele>1793.8</ele>
        <time>2012-01-29T10:08:01Z</time>
      </trkpt>
      <trkpt lat="45.91786" lon="6.49676">
        <ele>1782.9</ele>
        <time>2012-01-29T10:08:09Z</time>
      </trkpt>
      <trkpt lat="45.91795" lon="6.49677">
        <ele>1774.4</ele>
        <time>2012-01-29T10:08:15Z</time>
      </trkpt>
      <trkpt lat="45.91802" lon="6.49675">
        <ele>1771</ele>
        <time>2012-01-29T10:08:19Z</time>
      </trkpt>
      <trkpt lat="45.91807" lon="6.49669">
        <ele>1769.4</ele>
        <time>2012-01-29T10:08:21Z</time>
      </trkpt>
      <trkpt lat="45.91814" lon="6.49664">
        <ele>1766.5</ele>
        <time>2012-01-29T10:08:23Z</time>
      </trkpt>
      <trkpt lat="45.9182" lon="6.49659">
        <ele>1763</ele>
        <time>2012-01-29T10:08:25Z</time>
      </trkpt>
      <trkpt lat="45.91827" lon="6.49654">
        <ele>1760.3</ele>
        <time>2012-01-29T10:08:27Z</time>
      </trkpt>
      <trkpt lat="45.91832" lon="6.49647">
        <ele>1757.1</ele>
        <time>2012-01-29T10:08:29Z</time>
      </trkpt>
      <trkpt lat="45.9184" lon="6.49641">
        <ele>1752</ele>
        <time>2012-01-29T10:08:32Z</time>
      </trkpt>
      <trkpt lat="45.91844" lon="6.4963">
        <ele>1751.1</ele>
        <time>2012-01-29T10:08:49Z</time>
      </trkpt>
      <trkpt lat="45.91844" lon="6.49629">
        <ele>1751.1</ele>
        <time>2012-01-29T10:08:50Z</time>
      </trkpt>
      <trkpt lat="45.91851" lon="6.49623">
        <ele>1749</ele>
        <time>2012-01-29T10:09:04Z</time>
      </trkpt>
      <trkpt lat="45.91856" lon="6.49615">
        <ele>1741.3</ele>
        <time>2012-01-29T10:09:08Z</time>
      </trkpt>
      <trkpt lat="45.9186" lon="6.49608">
        <ele>1734</ele>
        <time>2012-01-29T10:09:11Z</time>
      </trkpt>
      <trkpt lat="45.91864" lon="6.49599">
        <ele>1727</ele>
        <time>2012-01-29T10:09:14Z</time>
      </trkpt>
      <trkpt lat="45.91871" lon="6.49592">
        <ele>1720.3</ele>
        <time>2012-01-29T10:09:17Z</time>
      </trkpt>
      <trkpt lat="45.91877" lon="6.49589">
        <ele>1716.3</ele>
        <time>2012-01-29T10:09:19Z</time>
      </trkpt>
      <trkpt lat="45.91883" lon="6.49582">
        <ele>1709.6</ele>
        <time>2012-01-29T10:09:22Z</time>
      </trkpt>
      <trkpt lat="45.9189" lon="6.49581">
        <ele>1706.5</ele>
        <time>2012-01-29T10:09:24Z</time>
      </trkpt>
      <trkpt lat="45.91897" lon="6.49575">
        <ele>1700.5</ele>
        <time>2012-01-29T10:09:27Z</time>
      </trkpt>
      <trkpt lat="45.91902" lon="6.49567">
        <ele>1696.1</ele>
        <time>2012-01-29T10:09:29Z</time>
      </trkpt>
      <trkpt lat="45.91909" lon="6.49566">
        <ele>1692.8</ele>
        <time>2012-01-29T10:09:31Z</time>
      </trkpt>
      <trkpt lat="45.91914" lon="6.49563">
        <ele>1689.5</ele>
        <time>2012-01-29T10:09:33Z</time>
      </trkpt>
      <trkpt lat="45.91917" lon="6.49551">
        <ele>1679.5</ele>
        <time>2012-01-29T10:09:55Z</time>
      </trkpt>
      <trkpt lat="45.91917" lon="6.49548">
        <ele>1679.8</ele>
        <time>2012-01-29T10:09:56Z</time>
      </trkpt>
      <trkpt lat="45.91916" lon="6.4953">
        <ele>1681.6</ele>
        <time>2012-01-29T10:10:01Z</time>
      </trkpt>
      <trkpt lat="45.91917" lon="6.49519">
        <ele>1681.9</ele>
        <time>2012-01-29T10:10:04Z</time>
      </trkpt>
      <trkpt lat="45.91922" lon="6.4951">
        <ele>1680</ele>
        <time>2012-01-29T10:10:07Z</time>
      </trkpt>
      <trkpt lat="45.91923" lon="6.49498">
        <ele>1677.4</ele>
        <time>2012-01-29T10:10:10Z</time>
      </trkpt>
      <trkpt lat="45.91928" lon="6.49491">
        <ele>1674.9</ele>
        <time>2012-01-29T10:10:12Z</time>
      </trkpt>
      <trkpt lat="45.91936" lon="6.49489">
        <ele>1672.3</ele>
        <time>2012-01-29T10:10:14Z</time>
      </trkpt>
      <trkpt lat="45.91945" lon="6.49486">
        <ele>1666.6</ele>
        <time>2012-01-29T10:10:17Z</time>
      </trkpt>
      <trkpt lat="45.91951" lon="6.49485">
        <ele>1663.4</ele>
        <time>2012-01-29T10:10:19Z</time>
      </trkpt>
      <trkpt lat="45.91957" lon="6.4948">
        <ele>1660.1</ele>
        <time>2012-01-29T10:10:21Z</time>
      </trkpt>
      <trkpt lat="45.91964" lon="6.49484">
        <ele>1658</ele>
        <time>2012-01-29T10:10:23Z</time>
      </trkpt>
      <trkpt lat="45.91971" lon="6.4948">
        <ele>1654.5</ele>
        <time>2012-01-29T10:10:26Z</time>
      </trkpt>
      <trkpt lat="45.91978" lon="6.49488">
        <ele>1649.9</ele>
        <time>2012-01-29T10:10:34Z</time>
      </trkpt>
      <trkpt lat="45.91985" lon="6.49492">
        <ele>1643.5</ele>
        <time>2012-01-29T10:10:44Z</time>
      </trkpt>
      <trkpt lat="45.91992" lon="6.49497">
        <ele>1641.5</ele>
        <time>2012-01-29T10:10:48Z</time>
      </trkpt>
      <trkpt lat="45.91997" lon="6.49487">
        <ele>1639.5</ele>
        <time>2012-01-29T10:10:51Z</time>
      </trkpt>
      <trkpt lat="45.92002" lon="6.4948">
        <ele>1636.8</ele>
        <time>2012-01-29T10:10:54Z</time>
      </trkpt>
      <trkpt lat="45.92007" lon="6.4947">
        <ele>1635.4</ele>
        <time>2012-01-29T10:10:57Z</time>
      </trkpt>
      <trkpt lat="45.92007" lon="6.49466">
        <ele>1635.6</ele>
        <time>2012-01-29T10:10:58Z</time>
      </trkpt>
      <trkpt lat="45.92019" lon="6.49454">
        <ele>1634.5</ele>
        <time>2012-01-29T10:11:04Z</time>
      </trkpt>
      <trkpt lat="45.92023" lon="6.49442">
        <ele>1635.5</ele>
        <time>2012-01-29T10:11:11Z</time>
      </trkpt>
      <trkpt lat="45.9203" lon="6.49445">
        <ele>1623.5</ele>
        <time>2012-01-29T10:11:25Z</time>
      </trkpt>
      <trkpt lat="45.92039" lon="6.49445">
        <ele>1619.8</ele>
        <time>2012-01-29T10:11:29Z</time>
      </trkpt>
      <trkpt lat="45.92047" lon="6.49445">
        <ele>1617.8</ele>
        <time>2012-01-29T10:11:36Z</time>
      </trkpt>
      <trkpt lat="45.92053" lon="6.4944">
        <ele>1616.5</ele>
        <time>2012-01-29T10:11:39Z</time>
      </trkpt>
      <trkpt lat="45.92062" lon="6.49436">
        <ele>1604.1</ele>
        <time>2012-01-29T10:11:56Z</time>
      </trkpt>
      <trkpt lat="45.9207" lon="6.49437">
        <ele>1604.3</ele>
        <time>2012-01-29T10:12:01Z</time>
      </trkpt>
      <trkpt lat="45.92071" lon="6.49438">
        <ele>1604.4</ele>
        <time>2012-01-29T10:12:02Z</time>
      </trkpt>
      <trkpt lat="45.92082" lon="6.49421">
        <ele>1590.5</ele>
        <time>2012-01-29T10:12:26Z</time>
      </trkpt>
      <trkpt lat="45.92087" lon="6.49411">
        <ele>1565.4</ele>
        <time>2012-01-29T10:13:11Z</time>
      </trkpt>
      <trkpt lat="45.9209" lon="6.49412">
        <ele>1566</ele>
        <time>2012-01-29T10:13:12Z</time>
      </trkpt>
      <trkpt lat="45.92101" lon="6.49401">
        <ele>1566.9</ele>
        <time>2012-01-29T10:13:16Z</time>
      </trkpt>
      <trkpt lat="45.92108" lon="6.49403">
        <ele>1565.6</ele>
        <time>2012-01-29T10:13:18Z</time>
      </trkpt>
      <trkpt lat="45.92116" lon="6.49396">
        <ele>1562</ele>
        <time>2012-01-29T10:13:21Z</time>
      </trkpt>
      <trkpt lat="45.92121" lon="6.49389">
        <ele>1559.4</ele>
        <time>2012-01-29T10:13:23Z</time>
      </trkpt>
      <trkpt lat="45.92127" lon="6.49393">
        <ele>1557.4</ele>
        <time>2012-01-29T10:13:25Z</time>
      </trkpt>
      <trkpt lat="45.92134" lon="6.49388">
        <ele>1555</ele>
        <time>2012-01-29T10:13:28Z</time>
      </trkpt>
      <trkpt lat="45.92141" lon="6.49384">
        <ele>1553.4</ele>
        <time>2012-01-29T10:13:30Z</time>
      </trkpt>
      <trkpt lat="45.92149" lon="6.49383">
        <ele>1551.6</ele>
        <time>2012-01-29T10:13:32Z</time>
      </trkpt>
      <trkpt lat="45.92153" lon="6.49379">
        <ele>1550.4</ele>
        <time>2012-01-29T10:13:33Z</time>
      </trkpt>
      <trkpt lat="45.92158" lon="6.49378">
        <ele>1549.3</ele>
        <time>2012-01-29T10:13:34Z</time>
      </trkpt>
      <trkpt lat="45.92163" lon="6.49371">
        <ele>1546</ele>
        <time>2012-01-29T10:13:36Z</time>
      </trkpt>
      <trkpt lat="45.9217" lon="6.49367">
        <ele>1542.9</ele>
        <time>2012-01-29T10:13:38Z</time>
      </trkpt>
      <trkpt lat="45.92176" lon="6.4936">
        <ele>1540.3</ele>
        <time>2012-01-29T10:13:40Z</time>
      </trkpt>
      <trkpt lat="45.92176" lon="6.4935">
        <ele>1539</ele>
        <time>2012-01-29T10:13:42Z</time>
      </trkpt>
      <trkpt lat="45.9218" lon="6.49344">
        <ele>1536.8</ele>
        <time>2012-01-29T10:13:44Z</time>
      </trkpt>
      <trkpt lat="45.92184" lon="6.49335">
        <ele>1534.4</ele>
        <time>2012-01-29T10:13:46Z</time>
      </trkpt>
      <trkpt lat="45.92184" lon="6.49326">
        <ele>1532.5</ele>
        <time>2012-01-29T10:13:48Z</time>
      </trkpt>
      <trkpt lat="45.92184" lon="6.49316">
        <ele>1530.5</ele>
        <time>2012-01-29T10:13:50Z</time>
      </trkpt>
      <trkpt lat="45.92187" lon="6.49308">
        <ele>1528.8</ele>
        <time>2012-01-29T10:13:52Z</time>
      </trkpt>
      <trkpt lat="45.92191" lon="6.49306">
        <ele>1527.5</ele>
        <time>2012-01-29T10:13:53Z</time>
      </trkpt>
      <trkpt lat="45.92197" lon="6.49297">
        <ele>1525</ele>
        <time>2012-01-29T10:13:55Z</time>
      </trkpt>
      <trkpt lat="45.92193" lon="6.49286">
        <ele>1521.9</ele>
        <time>2012-01-29T10:13:57Z</time>
      </trkpt>
      <trkpt lat="45.92197" lon="6.49277">
        <ele>1519.1</ele>
        <time>2012-01-29T10:13:59Z</time>
      </trkpt>
      <trkpt lat="45.92202" lon="6.49266">
        <ele>1517.5</ele>
        <time>2012-01-29T10:14:01Z</time>
      </trkpt>
      <trkpt lat="45.92201" lon="6.49254">
        <ele>1516</ele>
        <time>2012-01-29T10:14:03Z</time>
      </trkpt>
      <trkpt lat="45.92203" lon="6.49248">
        <ele>1514.3</ele>
        <time>2012-01-29T10:14:04Z</time>
      </trkpt>
      <trkpt lat="45.92206" lon="6.49236">
        <ele>1511.1</ele>
        <time>2012-01-29T10:14:06Z</time>
      </trkpt>
      <trkpt lat="45.92206" lon="6.49229">
        <ele>1509.9</ele>
        <time>2012-01-29T10:14:07Z</time>
      </trkpt>
      <trkpt lat="45.92207" lon="6.49222">
        <ele>1508.4</ele>
        <time>2012-01-29T10:14:08Z</time>
      </trkpt>
      <trkpt lat="45.92205" lon="6.4921">
        <ele>1505.4</ele>
        <time>2012-01-29T10:14:10Z</time>
      </trkpt>
      <trkpt lat="45.92204" lon="6.49197">
        <ele>1501.4</ele>
        <time>2012-01-29T10:14:12Z</time>
      </trkpt>
      <trkpt lat="45.92206" lon="6.49191">
        <ele>1499.5</ele>
        <time>2012-01-29T10:14:13Z</time>
      </trkpt>
      <trkpt lat="45.92203" lon="6.49179">
        <ele>1495.8</ele>
        <time>2012-01-29T10:14:15Z</time>
      </trkpt>
      <trkpt lat="45.92202" lon="6.49171">
        <ele>1493.6</ele>
        <time>2012-01-29T10:14:16Z</time>
      </trkpt>
      <trkpt lat="45.922" lon="6.49163">
        <ele>1491.4</ele>
        <time>2012-01-29T10:14:17Z</time>
      </trkpt>
      <trkpt lat="45.922" lon="6.49154">
        <ele>1489.1</ele>
        <time>2012-01-29T10:14:18Z</time>
      </trkpt>
      <trkpt lat="45.92199" lon="6.49145">
        <ele>1487</ele>
        <time>2012-01-29T10:14:19Z</time>
      </trkpt>
      <trkpt lat="45.92197" lon="6.49137">
        <ele>1485.5</ele>
        <time>2012-01-29T10:14:20Z</time>
      </trkpt>
      <trkpt lat="45.92194" lon="6.49129">
        <ele>1483.8</ele>
        <time>2012-01-29T10:14:21Z</time>
      </trkpt>
      <trkpt lat="45.92194" lon="6.4912">
        <ele>1482.3</ele>
        <time>2012-01-29T10:14:22Z</time>
      </trkpt>
      <trkpt lat="45.92194" lon="6.49111">
        <ele>1480.9</ele>
        <time>2012-01-29T10:14:23Z</time>
      </trkpt>
      <trkpt lat="45.92195" lon="6.49102">
        <ele>1479.5</ele>
        <time>2012-01-29T10:14:24Z</time>
      </trkpt>
      <trkpt lat="45.92196" lon="6.49092">
        <ele>1478.4</ele>
        <time>2012-01-29T10:14:25Z</time>
      </trkpt>
      <trkpt lat="45.92195" lon="6.49082">
        <ele>1477.1</ele>
        <time>2012-01-29T10:14:26Z</time>
      </trkpt>
      <trkpt lat="45.92196" lon="6.49071">
        <ele>1475.9</ele>
        <time>2012-01-29T10:14:27Z</time>
      </trkpt>
      <trkpt lat="45.92195" lon="6.4906">
        <ele>1474.5</ele>
        <time>2012-01-29T10:14:28Z</time>
      </trkpt>
      <trkpt lat="45.92194" lon="6.49048">
        <ele>1473.1</ele>
        <time>2012-01-29T10:14:29Z</time>
      </trkpt>
      <trkpt lat="45.92191" lon="6.49037">
        <ele>1471.9</ele>
        <time>2012-01-29T10:14:30Z</time>
      </trkpt>
      <trkpt lat="45.92188" lon="6.49027">
        <ele>1470.5</ele>
        <time>2012-01-29T10:14:31Z</time>
      </trkpt>
      <trkpt lat="45.92185" lon="6.49016">
        <ele>1469.6</ele>
        <time>2012-01-29T10:14:32Z</time>
      </trkpt>
      <trkpt lat="45.92182" lon="6.49007">
        <ele>1468.8</ele>
        <time>2012-01-29T10:14:33Z</time>
      </trkpt>
      <trkpt lat="45.9218" lon="6.48997">
        <ele>1467.9</ele>
        <time>2012-01-29T10:14:34Z</time>
      </trkpt>
      <trkpt lat="45.92178" lon="6.48986">
        <ele>1466.5</ele>
        <time>2012-01-29T10:14:35Z</time>
      </trkpt>
      <trkpt lat="45.92176" lon="6.48975">
        <ele>1465.5</ele>
        <time>2012-01-29T10:14:36Z</time>
      </trkpt>
      <trkpt lat="45.92175" lon="6.48964">
        <ele>1464.5</ele>
        <time>2012-01-29T10:14:37Z</time>
      </trkpt>
      <trkpt lat="45.92174" lon="6.48953">
        <ele>1463.6</ele>
        <time>2012-01-29T10:14:38Z</time>
      </trkpt>
      <trkpt lat="45.92173" lon="6.48942">
        <ele>1463</ele>
        <time>2012-01-29T10:14:39Z</time>
      </trkpt>
      <trkpt lat="45.92172" lon="6.48931">
        <ele>1462.5</ele>
        <time>2012-01-29T10:14:40Z</time>
      </trkpt>
      <trkpt lat="45.92171" lon="6.48921">
        <ele>1461.9</ele>
        <time>2012-01-29T10:14:41Z</time>
      </trkpt>
      <trkpt lat="45.92168" lon="6.48911">
        <ele>1461.4</ele>
        <time>2012-01-29T10:14:42Z</time>
      </trkpt>
      <trkpt lat="45.92166" lon="6.48903">
        <ele>1460.9</ele>
        <time>2012-01-29T10:14:43Z</time>
      </trkpt>
      <trkpt lat="45.92163" lon="6.48896">
        <ele>1460.5</ele>
        <time>2012-01-29T10:14:44Z</time>
      </trkpt>
      <trkpt lat="45.9216" lon="6.48884">
        <ele>1460.8</ele>
        <time>2012-01-29T10:14:46Z</time>
      </trkpt>
      <trkpt lat="45.9216" lon="6.48872">
        <ele>1461.5</ele>
        <time>2012-01-29T10:14:48Z</time>
      </trkpt>
      <trkpt lat="45.9216" lon="6.48861">
        <ele>1462.4</ele>
        <time>2012-01-29T10:14:50Z</time>
      </trkpt>
      <trkpt lat="45.92165" lon="6.48852">
        <ele>1453.5</ele>
        <time>2012-01-29T10:15:07Z</time>
      </trkpt>
      <trkpt lat="45.92172" lon="6.48844">
        <ele>1453.5</ele>
        <time>2012-01-29T10:15:16Z</time>
      </trkpt>
      <trkpt lat="45.92173" lon="6.48843">
        <ele>1454</ele>
        <time>2012-01-29T10:15:17Z</time>
      </trkpt>
      <trkpt lat="45.92182" lon="6.48825">
        <ele>1459</ele>
        <time>2012-01-29T10:15:37Z</time>
      </trkpt>
      <trkpt lat="45.92182" lon="6.48812">
        <ele>1460.4</ele>
        <time>2012-01-29T10:15:48Z</time>
      </trkpt>
      <trkpt lat="45.9218" lon="6.488">
        <ele>1461.3</ele>
        <time>2012-01-29T10:15:58Z</time>
      </trkpt>
      <trkpt lat="45.92178" lon="6.48789">
        <ele>1463</ele>
        <time>2012-01-29T10:16:06Z</time>
      </trkpt>
      <trkpt lat="45.92177" lon="6.48776">
        <ele>1466</ele>
        <time>2012-01-29T10:16:18Z</time>
      </trkpt>
      <trkpt lat="45.92177" lon="6.48776">
        <ele>1466</ele>
        <time>2012-01-29T10:16:19Z</time>
      </trkpt>
      <trkpt lat="45.92173" lon="6.48752">
        <ele>1468.9</ele>
        <time>2012-01-29T10:16:41Z</time>
      </trkpt>
      <trkpt lat="45.92169" lon="6.4874">
        <ele>1469.6</ele>
        <time>2012-01-29T10:16:52Z</time>
      </trkpt>
      <trkpt lat="45.92164" lon="6.4873">
        <ele>1466.9</ele>
        <time>2012-01-29T10:17:02Z</time>
      </trkpt>
      <trkpt lat="45.9216" lon="6.48719">
        <ele>1465.5</ele>
        <time>2012-01-29T10:17:14Z</time>
      </trkpt>
      <trkpt lat="45.92156" lon="6.48709">
        <ele>1466</ele>
        <time>2012-01-29T10:17:26Z</time>
      </trkpt>
      <trkpt lat="45.92155" lon="6.48708">
        <ele>1466.3</ele>
        <time>2012-01-29T10:17:27Z</time>
      </trkpt>
      <trkpt lat="45.92143" lon="6.48693">
        <ele>1461.3</ele>
        <time>2012-01-29T10:17:47Z</time>
      </trkpt>
      <trkpt lat="45.92138" lon="6.48683">
        <ele>1462.5</ele>
        <time>2012-01-29T10:17:51Z</time>
      </trkpt>
      <trkpt lat="45.92134" lon="6.48673">
        <ele>1464.4</ele>
        <time>2012-01-29T10:17:53Z</time>
      </trkpt>
      <trkpt lat="45.92133" lon="6.48661">
        <ele>1466.8</ele>
        <time>2012-01-29T10:17:55Z</time>
      </trkpt>
      <trkpt lat="45.92136" lon="6.48652">
        <ele>1469.4</ele>
        <time>2012-01-29T10:17:57Z</time>
      </trkpt>
      <trkpt lat="45.92139" lon="6.48647">
        <ele>1470.3</ele>
        <time>2012-01-29T10:17:58Z</time>
      </trkpt>
      <trkpt lat="45.92142" lon="6.48641">
        <ele>1470.6</ele>
        <time>2012-01-29T10:17:59Z</time>
      </trkpt>
      <trkpt lat="45.92144" lon="6.48636">
        <ele>1471.1</ele>
        <time>2012-01-29T10:18:00Z</time>
      </trkpt>
      <trkpt lat="45.92147" lon="6.4863">
        <ele>1472</ele>
        <time>2012-01-29T10:18:01Z</time>
      </trkpt>
      <trkpt lat="45.9215" lon="6.48624">
        <ele>1472.8</ele>
        <time>2012-01-29T10:18:02Z</time>
      </trkpt>
      <trkpt lat="45.92152" lon="6.48618">
        <ele>1473.3</ele>
        <time>2012-01-29T10:18:03Z</time>
      </trkpt>
      <trkpt lat="45.92155" lon="6.48612">
        <ele>1473.5</ele>
        <time>2012-01-29T10:18:04Z</time>
      </trkpt>
      <trkpt lat="45.92158" lon="6.48606">
        <ele>1473.9</ele>
        <time>2012-01-29T10:18:05Z</time>
      </trkpt>
      <trkpt lat="45.92161" lon="6.48599">
        <ele>1474</ele>
        <time>2012-01-29T10:18:06Z</time>
      </trkpt>
      <trkpt lat="45.92164" lon="6.48593">
        <ele>1474.3</ele>
        <time>2012-01-29T10:18:07Z</time>
      </trkpt>
      <trkpt lat="45.92167" lon="6.48587">
        <ele>1474.4</ele>
        <time>2012-01-29T10:18:08Z</time>
      </trkpt>
      <trkpt lat="45.9217" lon="6.48581">
        <ele>1474.3</ele>
        <time>2012-01-29T10:18:09Z</time>
      </trkpt>
      <trkpt lat="45.92173" lon="6.48575">
        <ele>1474.3</ele>
        <time>2012-01-29T10:18:10Z</time>
      </trkpt>
      <trkpt lat="45.92176" lon="6.4857">
        <ele>1474.1</ele>
        <time>2012-01-29T10:18:11Z</time>
      </trkpt>
      <trkpt lat="45.92179" lon="6.48564">
        <ele>1474</ele>
        <time>2012-01-29T10:18:12Z</time>
      </trkpt>
      <trkpt lat="45.92181" lon="6.48558">
        <ele>1473.6</ele>
        <time>2012-01-29T10:18:13Z</time>
      </trkpt>
      <trkpt lat="45.92184" lon="6.48552">
        <ele>1473.3</ele>
        <time>2012-01-29T10:18:14Z</time>
      </trkpt>
      <trkpt lat="45.92187" lon="6.48546">
        <ele>1473.1</ele>
        <time>2012-01-29T10:18:15Z</time>
      </trkpt>
      <trkpt lat="45.9219" lon="6.48539">
        <ele>1473</ele>
        <time>2012-01-29T10:18:16Z</time>
      </trkpt>
      <trkpt lat="45.92193" lon="6.48531">
        <ele>1472.9</ele>
        <time>2012-01-29T10:18:17Z</time>
      </trkpt>
      <trkpt lat="45.92196" lon="6.48523">
        <ele>1472.4</ele>
        <time>2012-01-29T10:18:18Z</time>
      </trkpt>
      <trkpt lat="45.92199" lon="6.48515">
        <ele>1471.6</ele>
        <time>2012-01-29T10:18:19Z</time>
      </trkpt>
      <trkpt lat="45.92202" lon="6.48508">
        <ele>1471</ele>
        <time>2012-01-29T10:18:20Z</time>
      </trkpt>
      <trkpt lat="45.92205" lon="6.48501">
        <ele>1470.9</ele>
        <time>2012-01-29T10:18:21Z</time>
      </trkpt>
      <trkpt lat="45.92209" lon="6.48494">
        <ele>1470.8</ele>
        <time>2012-01-29T10:18:22Z</time>
      </trkpt>
      <trkpt lat="45.92212" lon="6.48488">
        <ele>1470.6</ele>
        <time>2012-01-29T10:18:23Z</time>
      </trkpt>
      <trkpt lat="45.92214" lon="6.48481">
        <ele>1470.6</ele>
        <time>2012-01-29T10:18:24Z</time>
      </trkpt>
      <trkpt lat="45.92217" lon="6.48475">
        <ele>1470.6</ele>
        <time>2012-01-29T10:18:25Z</time>
      </trkpt>
      <trkpt lat="45.9222" lon="6.4847">
        <ele>1470.5</ele>
        <time>2012-01-29T10:18:26Z</time>
      </trkpt>
      <trkpt lat="45.92223" lon="6.48465">
        <ele>1470.1</ele>
        <time>2012-01-29T10:18:27Z</time>
      </trkpt>
      <trkpt lat="45.92227" lon="6.48461">
        <ele>1470</ele>
        <time>2012-01-29T10:18:28Z</time>
      </trkpt>
      <trkpt lat="45.9223" lon="6.48456">
        <ele>1469.8</ele>
        <time>2012-01-29T10:18:29Z</time>
      </trkpt>
      <trkpt lat="45.92234" lon="6.48451">
        <ele>1469.6</ele>
        <time>2012-01-29T10:18:30Z</time>
      </trkpt>
      <trkpt lat="45.92241" lon="6.48444">
        <ele>1468.9</ele>
        <time>2012-01-29T10:18:32Z</time>
      </trkpt>
      <trkpt lat="45.92246" lon="6.48436">
        <ele>1468</ele>
        <time>2012-01-29T10:18:34Z</time>
      </trkpt>
      <trkpt lat="45.9225" lon="6.48424">
        <ele>1468</ele>
        <time>2012-01-29T10:18:38Z</time>
      </trkpt>
      <trkpt lat="45.92246" lon="6.48414">
        <ele>1463</ele>
        <time>2012-01-29T10:18:48Z</time>
      </trkpt>
      <trkpt lat="45.92239" lon="6.48406">
        <ele>1458.9</ele>
        <time>2012-01-29T10:18:53Z</time>
      </trkpt>
      <trkpt lat="45.92233" lon="6.484">
        <ele>1454.5</ele>
        <time>2012-01-29T10:19:00Z</time>
      </trkpt>
      <trkpt lat="45.92225" lon="6.48393">
        <ele>1452.4</ele>
        <time>2012-01-29T10:19:03Z</time>
      </trkpt>
      <trkpt lat="45.92221" lon="6.4839">
        <ele>1451.3</ele>
        <time>2012-01-29T10:19:04Z</time>
      </trkpt>
      <trkpt lat="45.92215" lon="6.48384">
        <ele>1449.9</ele>
        <time>2012-01-29T10:19:05Z</time>
      </trkpt>
      <trkpt lat="45.92209" lon="6.48377">
        <ele>1448.8</ele>
        <time>2012-01-29T10:19:06Z</time>
      </trkpt>
      <trkpt lat="45.92206" lon="6.4837">
        <ele>1448.3</ele>
        <time>2012-01-29T10:19:07Z</time>
      </trkpt>
      <trkpt lat="45.92203" lon="6.48362">
        <ele>1447.9</ele>
        <time>2012-01-29T10:19:08Z</time>
      </trkpt>
      <trkpt lat="45.922" lon="6.48355">
        <ele>1447.5</ele>
        <time>2012-01-29T10:19:09Z</time>
      </trkpt>
      <trkpt lat="45.92198" lon="6.48349">
        <ele>1447.3</ele>
        <time>2012-01-29T10:19:10Z</time>
      </trkpt>
      <trkpt lat="45.92195" lon="6.48343">
        <ele>1447</ele>
        <time>2012-01-29T10:19:11Z</time>
      </trkpt>
      <trkpt lat="45.92193" lon="6.48336">
        <ele>1446.5</ele>
        <time>2012-01-29T10:19:12Z</time>
      </trkpt>
      <trkpt lat="45.92191" lon="6.4833">
        <ele>1446</ele>
        <time>2012-01-29T10:19:13Z</time>
      </trkpt>
      <trkpt lat="45.92187" lon="6.48318">
        <ele>1446</ele>
        <time>2012-01-29T10:19:15Z</time>
      </trkpt>
      <trkpt lat="45.92184" lon="6.4831">
        <ele>1446.4</ele>
        <time>2012-01-29T10:19:17Z</time>
      </trkpt>
      <trkpt lat="45.9218" lon="6.48298">
        <ele>1447.1</ele>
        <time>2012-01-29T10:19:20Z</time>
      </trkpt>
      <trkpt lat="45.92178" lon="6.48291">
        <ele>1447.4</ele>
        <time>2012-01-29T10:19:22Z</time>
      </trkpt>
      <trkpt lat="45.92175" lon="6.48282">
        <ele>1447</ele>
        <time>2012-01-29T10:19:24Z</time>
      </trkpt>
      <trkpt lat="45.92172" lon="6.48272">
        <ele>1446.6</ele>
        <time>2012-01-29T10:19:26Z</time>
      </trkpt>
      <trkpt lat="45.9217" lon="6.48262">
        <ele>1446.9</ele>
        <time>2012-01-29T10:19:28Z</time>
      </trkpt>
      <trkpt lat="45.9217" lon="6.48258">
        <ele>1446.9</ele>
        <time>2012-01-29T10:19:29Z</time>
      </trkpt>
      <trkpt lat="45.92166" lon="6.4824">
        <ele>1446</ele>
        <time>2012-01-29T10:19:33Z</time>
      </trkpt>
      <trkpt lat="45.92162" lon="6.4823">
        <ele>1445.1</ele>
        <time>2012-01-29T10:19:35Z</time>
      </trkpt>
      <trkpt lat="45.9216" lon="6.48224">
        <ele>1444.8</ele>
        <time>2012-01-29T10:19:36Z</time>
      </trkpt>
      <trkpt lat="45.92158" lon="6.48218">
        <ele>1444.1</ele>
        <time>2012-01-29T10:19:37Z</time>
      </trkpt>
      <trkpt lat="45.92155" lon="6.48211">
        <ele>1443.6</ele>
        <time>2012-01-29T10:19:38Z</time>
      </trkpt>
      <trkpt lat="45.92152" lon="6.48204">
        <ele>1443</ele>
        <time>2012-01-29T10:19:39Z</time>
      </trkpt>
      <trkpt lat="45.92148" lon="6.48197">
        <ele>1442.5</ele>
        <time>2012-01-29T10:19:40Z</time>
      </trkpt>
      <trkpt lat="45.92145" lon="6.4819">
        <ele>1442.3</ele>
        <time>2012-01-29T10:19:41Z</time>
      </trkpt>
      <trkpt lat="45.92142" lon="6.48183">
        <ele>1442</ele>
        <time>2012-01-29T10:19:42Z</time>
      </trkpt>
      <trkpt lat="45.9214" lon="6.48177">
        <ele>1441.9</ele>
        <time>2012-01-29T10:19:43Z</time>
      </trkpt>
      <trkpt lat="45.92135" lon="6.48167">
        <ele>1442</ele>
        <time>2012-01-29T10:19:45Z</time>
      </trkpt>
      <trkpt lat="45.92129" lon="6.48158">
        <ele>1442.5</ele>
        <time>2012-01-29T10:19:47Z</time>
      </trkpt>
      <trkpt lat="45.92124" lon="6.4815">
        <ele>1443</ele>
        <time>2012-01-29T10:19:49Z</time>
      </trkpt>
      <trkpt lat="45.92119" lon="6.48142">
        <ele>1442.1</ele>
        <time>2012-01-29T10:19:51Z</time>
      </trkpt>
      <trkpt lat="45.92113" lon="6.48135">
        <ele>1441</ele>
        <time>2012-01-29T10:19:53Z</time>
      </trkpt>
      <trkpt lat="45.92107" lon="6.48129">
        <ele>1440</ele>
        <time>2012-01-29T10:19:55Z</time>
      </trkpt>
      <trkpt lat="45.92101" lon="6.48124">
        <ele>1439</ele>
        <time>2012-01-29T10:19:57Z</time>
      </trkpt>
      <trkpt lat="45.92094" lon="6.48119">
        <ele>1437.6</ele>
        <time>2012-01-29T10:19:59Z</time>
      </trkpt>
      <trkpt lat="45.9209" lon="6.48117">
        <ele>1437.1</ele>
        <time>2012-01-29T10:20:00Z</time>
      </trkpt>
      <trkpt lat="45.92086" lon="6.48115">
        <ele>1436.6</ele>
        <time>2012-01-29T10:20:01Z</time>
      </trkpt>
      <trkpt lat="45.92078" lon="6.48111">
        <ele>1436.5</ele>
        <time>2012-01-29T10:20:03Z</time>
      </trkpt>
      <trkpt lat="45.9207" lon="6.48108">
        <ele>1436</ele>
        <time>2012-01-29T10:20:06Z</time>
      </trkpt>
      <trkpt lat="45.92061" lon="6.48107">
        <ele>1434.5</ele>
        <time>2012-01-29T10:20:11Z</time>
      </trkpt>
      <trkpt lat="45.92053" lon="6.48103">
        <ele>1432.8</ele>
        <time>2012-01-29T10:20:13Z</time>
      </trkpt>
      <trkpt lat="45.92049" lon="6.481">
        <ele>1432</ele>
        <time>2012-01-29T10:20:14Z</time>
      </trkpt>
      <trkpt lat="45.92045" lon="6.48094">
        <ele>1431.5</ele>
        <time>2012-01-29T10:20:15Z</time>
      </trkpt>
      <trkpt lat="45.92042" lon="6.48088">
        <ele>1431.1</ele>
        <time>2012-01-29T10:20:16Z</time>
      </trkpt>
      <trkpt lat="45.92039" lon="6.48081">
        <ele>1430.9</ele>
        <time>2012-01-29T10:20:17Z</time>
      </trkpt>
      <trkpt lat="45.92036" lon="6.48074">
        <ele>1430.6</ele>
        <time>2012-01-29T10:20:18Z</time>
      </trkpt>
      <trkpt lat="45.92033" lon="6.48067">
        <ele>1430.5</ele>
        <time>2012-01-29T10:20:19Z</time>
      </trkpt>
      <trkpt lat="45.92031" lon="6.4806">
        <ele>1430.5</ele>
        <time>2012-01-29T10:20:20Z</time>
      </trkpt>
      <trkpt lat="45.92028" lon="6.48054">
        <ele>1430.4</ele>
        <time>2012-01-29T10:20:21Z</time>
      </trkpt>
      <trkpt lat="45.92025" lon="6.48048">
        <ele>1430.3</ele>
        <time>2012-01-29T10:20:22Z</time>
      </trkpt>
      <trkpt lat="45.92023" lon="6.48041">
        <ele>1430</ele>
        <time>2012-01-29T10:20:23Z</time>
      </trkpt>
      <trkpt lat="45.9202" lon="6.48034">
        <ele>1430</ele>
        <time>2012-01-29T10:20:24Z</time>
      </trkpt>
      <trkpt lat="45.92018" lon="6.48028">
        <ele>1430</ele>
        <time>2012-01-29T10:20:25Z</time>
      </trkpt>
      <trkpt lat="45.92016" lon="6.48022">
        <ele>1430</ele>
        <time>2012-01-29T10:20:26Z</time>
      </trkpt>
      <trkpt lat="45.92014" lon="6.48015">
        <ele>1430</ele>
        <time>2012-01-29T10:20:27Z</time>
      </trkpt>
      <trkpt lat="45.92012" lon="6.48008">
        <ele>1430</ele>
        <time>2012-01-29T10:20:28Z</time>
      </trkpt>
      <trkpt lat="45.9201" lon="6.48001">
        <ele>1430</ele>
        <time>2012-01-29T10:20:29Z</time>
      </trkpt>
      <trkpt lat="45.92008" lon="6.47994">
        <ele>1430</ele>
        <time>2012-01-29T10:20:30Z</time>
      </trkpt>
      <trkpt lat="45.92005" lon="6.47986">
        <ele>1429.9</ele>
        <time>2012-01-29T10:20:31Z</time>
      </trkpt>
      <trkpt lat="45.92003" lon="6.47979">
        <ele>1429.4</ele>
        <time>2012-01-29T10:20:32Z</time>
      </trkpt>
      <trkpt lat="45.92001" lon="6.47971">
        <ele>1429</ele>
        <time>2012-01-29T10:20:33Z</time>
      </trkpt>
      <trkpt lat="45.91999" lon="6.47964">
        <ele>1428.9</ele>
        <time>2012-01-29T10:20:34Z</time>
      </trkpt>
      <trkpt lat="45.91996" lon="6.47952">
        <ele>1428</ele>
        <time>2012-01-29T10:20:36Z</time>
      </trkpt>
      <trkpt lat="45.91994" lon="6.47941">
        <ele>1427.3</ele>
        <time>2012-01-29T10:20:38Z</time>
      </trkpt>
      <trkpt lat="45.91991" lon="6.47932">
        <ele>1427.5</ele>
        <time>2012-01-29T10:20:40Z</time>
      </trkpt>
      <trkpt lat="45.9199" lon="6.47922">
        <ele>1428.5</ele>
        <time>2012-01-29T10:20:42Z</time>
      </trkpt>
      <trkpt lat="45.91988" lon="6.47912">
        <ele>1429.9</ele>
        <time>2012-01-29T10:20:44Z</time>
      </trkpt>
      <trkpt lat="45.91984" lon="6.47901">
        <ele>1430.4</ele>
        <time>2012-01-29T10:20:46Z</time>
      </trkpt>
      <trkpt lat="45.91979" lon="6.4789">
        <ele>1430</ele>
        <time>2012-01-29T10:20:48Z</time>
      </trkpt>
      <trkpt lat="45.91975" lon="6.47879">
        <ele>1425.6</ele>
        <time>2012-01-29T10:20:59Z</time>
      </trkpt>
      <trkpt lat="45.91975" lon="6.47874">
        <ele>1414.1</ele>
        <time>2012-01-29T10:22:32Z</time>
      </trkpt>
      <trkpt lat="45.91975" lon="6.47874">
        <ele>1414.1</ele>
        <time>2012-01-29T10:22:32Z</time>
      </trkpt>
    </trkseg>
  </trk>
</gpx>